<?xml version="1.0" encoding="UTF-8" standalone="no" ?>
<gpx xmlns="http://www.topografix.com/GPX/1/1" xmlns:xsi="http://www.w3.org/2001/XMLSchema-instance" xsi:schemaLocation="http://www.topografix.com/GPX/1/1 http://www.topografix.com/GPX/1/1/gpx.xsd" version="1.1" creator="VisuGPX - https://www.visugpx.com">
  <metadata>
    <name>VTT Bouguenais</name>
    <desc><![CDATA[Base de donnée des différentes randos VTT effectuées par la club.
]]></desc>
  </metadata>
  <trk>
    <name><![CDATA[ACTIVE LOG 001]]></name>
    <trkseg>
      <trkpt lat="47.17732" lon="-1.62224">
        <ele>20.3249512</ele>
        <time>2010-10-24T06:56:32Z</time>
      </trkpt>
      <trkpt lat="47.17716" lon="-1.62265">
        <ele>22.7282715</ele>
        <time>2010-10-24T07:00:27Z</time>
      </trkpt>
      <trkpt lat="47.17747" lon="-1.62301">
        <ele>21.286377</ele>
        <time>2010-10-24T07:00:45Z</time>
      </trkpt>
      <trkpt lat="47.17794" lon="-1.62318">
        <ele>22.2475586</ele>
        <time>2010-10-24T07:00:58Z</time>
      </trkpt>
      <trkpt lat="47.17838" lon="-1.62348">
        <ele>24.651001</ele>
        <time>2010-10-24T07:01:10Z</time>
      </trkpt>
      <trkpt lat="47.17876" lon="-1.62324">
        <ele>24.651001</ele>
        <time>2010-10-24T07:01:22Z</time>
      </trkpt>
      <trkpt lat="47.17917" lon="-1.62327">
        <ele>24.651001</ele>
        <time>2010-10-24T07:01:34Z</time>
      </trkpt>
      <trkpt lat="47.17957" lon="-1.6236">
        <ele>27.0543213</ele>
        <time>2010-10-24T07:01:47Z</time>
      </trkpt>
      <trkpt lat="47.1795" lon="-1.62424">
        <ele>28.0155029</ele>
        <time>2010-10-24T07:01:57Z</time>
      </trkpt>
      <trkpt lat="47.17967" lon="-1.62469">
        <ele>28.4962158</ele>
        <time>2010-10-24T07:02:11Z</time>
      </trkpt>
      <trkpt lat="47.18013" lon="-1.6248">
        <ele>26.5736084</ele>
        <time>2010-10-24T07:02:21Z</time>
      </trkpt>
      <trkpt lat="47.18034" lon="-1.62535">
        <ele>24.1702881</ele>
        <time>2010-10-24T07:02:31Z</time>
      </trkpt>
      <trkpt lat="47.18017" lon="-1.62598">
        <ele>22.7282715</ele>
        <time>2010-10-24T07:02:42Z</time>
      </trkpt>
      <trkpt lat="47.18023" lon="-1.62659">
        <ele>22.7282715</ele>
        <time>2010-10-24T07:02:54Z</time>
      </trkpt>
      <trkpt lat="47.18047" lon="-1.62703">
        <ele>21.286377</ele>
        <time>2010-10-24T07:03:03Z</time>
      </trkpt>
      <trkpt lat="47.18093" lon="-1.62691">
        <ele>15.5184326</ele>
        <time>2010-10-24T07:03:09Z</time>
      </trkpt>
      <trkpt lat="47.18129" lon="-1.62723">
        <ele>10.711792</ele>
        <time>2010-10-24T07:03:15Z</time>
      </trkpt>
      <trkpt lat="47.18135" lon="-1.62791">
        <ele>8.7891846</ele>
        <time>2010-10-24T07:03:21Z</time>
      </trkpt>
      <trkpt lat="47.18132" lon="-1.62861">
        <ele>9.2698975</ele>
        <time>2010-10-24T07:03:28Z</time>
      </trkpt>
      <trkpt lat="47.18127" lon="-1.62932">
        <ele>10.2312012</ele>
        <time>2010-10-24T07:03:37Z</time>
      </trkpt>
      <trkpt lat="47.18122" lon="-1.63">
        <ele>9.7506104</ele>
        <time>2010-10-24T07:03:46Z</time>
      </trkpt>
      <trkpt lat="47.18095" lon="-1.63049">
        <ele>10.711792</ele>
        <time>2010-10-24T07:03:57Z</time>
      </trkpt>
      <trkpt lat="47.18092" lon="-1.63118">
        <ele>12.6343994</ele>
        <time>2010-10-24T07:04:08Z</time>
      </trkpt>
      <trkpt lat="47.18056" lon="-1.63162">
        <ele>15.0377197</ele>
        <time>2010-10-24T07:04:21Z</time>
      </trkpt>
      <trkpt lat="47.18076" lon="-1.63223">
        <ele>13.1151123</ele>
        <time>2010-10-24T07:04:30Z</time>
      </trkpt>
      <trkpt lat="47.18105" lon="-1.63274">
        <ele>10.711792</ele>
        <time>2010-10-24T07:04:37Z</time>
      </trkpt>
      <trkpt lat="47.18145" lon="-1.63303">
        <ele>8.7891846</ele>
        <time>2010-10-24T07:04:44Z</time>
      </trkpt>
      <trkpt lat="47.18187" lon="-1.63333">
        <ele>7.347168</ele>
        <time>2010-10-24T07:04:51Z</time>
      </trkpt>
      <trkpt lat="47.18231" lon="-1.63362">
        <ele>6.8664551</ele>
        <time>2010-10-24T07:04:59Z</time>
      </trkpt>
      <trkpt lat="47.18272" lon="-1.63391">
        <ele>6.3858643</ele>
        <time>2010-10-24T07:05:07Z</time>
      </trkpt>
      <trkpt lat="47.18314" lon="-1.63419">
        <ele>6.3858643</ele>
        <time>2010-10-24T07:05:15Z</time>
      </trkpt>
      <trkpt lat="47.18354" lon="-1.63448">
        <ele>4.9438477</ele>
        <time>2010-10-24T07:05:23Z</time>
      </trkpt>
      <trkpt lat="47.18396" lon="-1.63477">
        <ele>4.9438477</ele>
        <time>2010-10-24T07:05:31Z</time>
      </trkpt>
      <trkpt lat="47.1844" lon="-1.63509">
        <ele>4.4632568</ele>
        <time>2010-10-24T07:05:40Z</time>
      </trkpt>
      <trkpt lat="47.18488" lon="-1.6353">
        <ele>4.4632568</ele>
        <time>2010-10-24T07:05:49Z</time>
      </trkpt>
      <trkpt lat="47.18531" lon="-1.63527">
        <ele>5.9052734</ele>
        <time>2010-10-24T07:05:58Z</time>
      </trkpt>
      <trkpt lat="47.18556" lon="-1.63463">
        <ele>4.9438477</ele>
        <time>2010-10-24T07:06:07Z</time>
      </trkpt>
      <trkpt lat="47.1859" lon="-1.63424">
        <ele>5.4245605</ele>
        <time>2010-10-24T07:06:21Z</time>
      </trkpt>
      <trkpt lat="47.18634" lon="-1.6339">
        <ele>4.9438477</ele>
        <time>2010-10-24T07:06:33Z</time>
      </trkpt>
      <trkpt lat="47.18618" lon="-1.6333">
        <ele>4.4632568</ele>
        <time>2010-10-24T07:06:44Z</time>
      </trkpt>
      <trkpt lat="47.18589" lon="-1.63277">
        <ele>6.3858643</ele>
        <time>2010-10-24T07:06:55Z</time>
      </trkpt>
      <trkpt lat="47.18556" lon="-1.63228">
        <ele>7.347168</ele>
        <time>2010-10-24T07:07:06Z</time>
      </trkpt>
      <trkpt lat="47.18556" lon="-1.63169">
        <ele>7.347168</ele>
        <time>2010-10-24T07:07:18Z</time>
      </trkpt>
      <trkpt lat="47.18522" lon="-1.63124">
        <ele>7.347168</ele>
        <time>2010-10-24T07:07:31Z</time>
      </trkpt>
      <trkpt lat="47.18483" lon="-1.63076">
        <ele>7.347168</ele>
        <time>2010-10-24T07:07:43Z</time>
      </trkpt>
      <trkpt lat="47.18438" lon="-1.63028">
        <ele>7.347168</ele>
        <time>2010-10-24T07:07:53Z</time>
      </trkpt>
      <trkpt lat="47.184" lon="-1.62975">
        <ele>6.8664551</ele>
        <time>2010-10-24T07:08:02Z</time>
      </trkpt>
      <trkpt lat="47.18396" lon="-1.62904">
        <ele>7.8278809</ele>
        <time>2010-10-24T07:08:11Z</time>
      </trkpt>
      <trkpt lat="47.18411" lon="-1.62831">
        <ele>6.8664551</ele>
        <time>2010-10-24T07:08:20Z</time>
      </trkpt>
      <trkpt lat="47.18422" lon="-1.6276">
        <ele>6.3858643</ele>
        <time>2010-10-24T07:08:29Z</time>
      </trkpt>
      <trkpt lat="47.18431" lon="-1.62692">
        <ele>5.9052734</ele>
        <time>2010-10-24T07:08:38Z</time>
      </trkpt>
      <trkpt lat="47.18436" lon="-1.62619">
        <ele>6.3858643</ele>
        <time>2010-10-24T07:08:49Z</time>
      </trkpt>
      <trkpt lat="47.18439" lon="-1.62551">
        <ele>7.8278809</ele>
        <time>2010-10-24T07:08:58Z</time>
      </trkpt>
      <trkpt lat="47.18438" lon="-1.62477">
        <ele>10.2312012</ele>
        <time>2010-10-24T07:09:08Z</time>
      </trkpt>
      <trkpt lat="47.18435" lon="-1.62403">
        <ele>12.6343994</ele>
        <time>2010-10-24T07:09:19Z</time>
      </trkpt>
      <trkpt lat="47.18427" lon="-1.62324">
        <ele>10.2312012</ele>
        <time>2010-10-24T07:09:31Z</time>
      </trkpt>
      <trkpt lat="47.184" lon="-1.62347">
        <ele>8.3085938</ele>
        <time>2010-10-24T07:09:42Z</time>
      </trkpt>
      <trkpt lat="47.18361" lon="-1.62373">
        <ele>7.8278809</ele>
        <time>2010-10-24T07:09:51Z</time>
      </trkpt>
      <trkpt lat="47.18321" lon="-1.62407">
        <ele>6.8664551</ele>
        <time>2010-10-24T07:10:00Z</time>
      </trkpt>
      <trkpt lat="47.18286" lon="-1.62453">
        <ele>6.3858643</ele>
        <time>2010-10-24T07:10:09Z</time>
      </trkpt>
      <trkpt lat="47.1824" lon="-1.62481">
        <ele>5.4245605</ele>
        <time>2010-10-24T07:10:19Z</time>
      </trkpt>
      <trkpt lat="47.18205" lon="-1.62444">
        <ele>5.4245605</ele>
        <time>2010-10-24T07:10:28Z</time>
      </trkpt>
      <trkpt lat="47.18179" lon="-1.62387">
        <ele>5.4245605</ele>
        <time>2010-10-24T07:10:37Z</time>
      </trkpt>
      <trkpt lat="47.1815" lon="-1.62333">
        <ele>6.3858643</ele>
        <time>2010-10-24T07:10:46Z</time>
      </trkpt>
      <trkpt lat="47.18149" lon="-1.62262">
        <ele>6.8664551</ele>
        <time>2010-10-24T07:10:56Z</time>
      </trkpt>
      <trkpt lat="47.18114" lon="-1.62213">
        <ele>5.9052734</ele>
        <time>2010-10-24T07:11:06Z</time>
      </trkpt>
      <trkpt lat="47.18092" lon="-1.62151">
        <ele>4.9438477</ele>
        <time>2010-10-24T07:11:16Z</time>
      </trkpt>
      <trkpt lat="47.18093" lon="-1.62083">
        <ele>3.5019531</ele>
        <time>2010-10-24T07:11:25Z</time>
      </trkpt>
      <trkpt lat="47.18069" lon="-1.62028">
        <ele>2.5406494</ele>
        <time>2010-10-24T07:11:34Z</time>
      </trkpt>
      <trkpt lat="47.18045" lon="-1.61969">
        <ele>3.0212402</ele>
        <time>2010-10-24T07:11:43Z</time>
      </trkpt>
      <trkpt lat="47.18018" lon="-1.6192">
        <ele>2.5406494</ele>
        <time>2010-10-24T07:11:57Z</time>
      </trkpt>
      <trkpt lat="47.18008" lon="-1.61854">
        <ele>3.982666</ele>
        <time>2010-10-24T07:12:07Z</time>
      </trkpt>
      <trkpt lat="47.17976" lon="-1.61808">
        <ele>3.982666</ele>
        <time>2010-10-24T07:12:18Z</time>
      </trkpt>
      <trkpt lat="47.17964" lon="-1.61739">
        <ele>3.982666</ele>
        <time>2010-10-24T07:12:28Z</time>
      </trkpt>
      <trkpt lat="47.17964" lon="-1.61669">
        <ele>3.982666</ele>
        <time>2010-10-24T07:12:38Z</time>
      </trkpt>
      <trkpt lat="47.18009" lon="-1.6165">
        <ele>3.982666</ele>
        <time>2010-10-24T07:12:49Z</time>
      </trkpt>
      <trkpt lat="47.18004" lon="-1.61581">
        <ele>2.0600586</ele>
        <time>2010-10-24T07:13:00Z</time>
      </trkpt>
      <trkpt lat="47.18008" lon="-1.6151">
        <ele>2.0600586</ele>
        <time>2010-10-24T07:13:10Z</time>
      </trkpt>
      <trkpt lat="47.18007" lon="-1.61443">
        <ele>1.5793457</ele>
        <time>2010-10-24T07:13:19Z</time>
      </trkpt>
      <trkpt lat="47.17965" lon="-1.61412">
        <ele>3.0212402</ele>
        <time>2010-10-24T07:13:29Z</time>
      </trkpt>
      <trkpt lat="47.17955" lon="-1.61341">
        <ele>4.4632568</ele>
        <time>2010-10-24T07:13:39Z</time>
      </trkpt>
      <trkpt lat="47.17935" lon="-1.61286">
        <ele>3.982666</ele>
        <time>2010-10-24T07:13:49Z</time>
      </trkpt>
      <trkpt lat="47.17908" lon="-1.61232">
        <ele>4.4632568</ele>
        <time>2010-10-24T07:13:58Z</time>
      </trkpt>
      <trkpt lat="47.17884" lon="-1.61177">
        <ele>4.4632568</ele>
        <time>2010-10-24T07:14:07Z</time>
      </trkpt>
      <trkpt lat="47.17888" lon="-1.61109">
        <ele>4.9438477</ele>
        <time>2010-10-24T07:14:16Z</time>
      </trkpt>
      <trkpt lat="47.17876" lon="-1.61047">
        <ele>4.4632568</ele>
        <time>2010-10-24T07:14:25Z</time>
      </trkpt>
      <trkpt lat="47.17846" lon="-1.60992">
        <ele>4.9438477</ele>
        <time>2010-10-24T07:14:34Z</time>
      </trkpt>
      <trkpt lat="47.1782" lon="-1.6094">
        <ele>5.4245605</ele>
        <time>2010-10-24T07:14:45Z</time>
      </trkpt>
      <trkpt lat="47.17861" lon="-1.6091">
        <ele>6.3858643</ele>
        <time>2010-10-24T07:14:56Z</time>
      </trkpt>
      <trkpt lat="47.17907" lon="-1.60924">
        <ele>5.9052734</ele>
        <time>2010-10-24T07:15:05Z</time>
      </trkpt>
      <trkpt lat="47.17942" lon="-1.60969">
        <ele>5.4245605</ele>
        <time>2010-10-24T07:15:14Z</time>
      </trkpt>
      <trkpt lat="47.17978" lon="-1.61012">
        <ele>6.3858643</ele>
        <time>2010-10-24T07:15:23Z</time>
      </trkpt>
      <trkpt lat="47.18019" lon="-1.61049">
        <ele>7.347168</ele>
        <time>2010-10-24T07:15:33Z</time>
      </trkpt>
      <trkpt lat="47.18059" lon="-1.6109">
        <ele>6.8664551</ele>
        <time>2010-10-24T07:15:43Z</time>
      </trkpt>
      <trkpt lat="47.18089" lon="-1.61144">
        <ele>6.3858643</ele>
        <time>2010-10-24T07:15:52Z</time>
      </trkpt>
      <trkpt lat="47.18121" lon="-1.61196">
        <ele>6.3858643</ele>
        <time>2010-10-24T07:16:01Z</time>
      </trkpt>
      <trkpt lat="47.18155" lon="-1.61242">
        <ele>7.347168</ele>
        <time>2010-10-24T07:16:10Z</time>
      </trkpt>
      <trkpt lat="47.18193" lon="-1.61286">
        <ele>7.347168</ele>
        <time>2010-10-24T07:16:20Z</time>
      </trkpt>
      <trkpt lat="47.18235" lon="-1.61321">
        <ele>7.347168</ele>
        <time>2010-10-24T07:16:30Z</time>
      </trkpt>
      <trkpt lat="47.18276" lon="-1.61348">
        <ele>7.8278809</ele>
        <time>2010-10-24T07:16:39Z</time>
      </trkpt>
      <trkpt lat="47.18323" lon="-1.61372">
        <ele>9.2698975</ele>
        <time>2010-10-24T07:16:49Z</time>
      </trkpt>
      <trkpt lat="47.18371" lon="-1.61391">
        <ele>9.2698975</ele>
        <time>2010-10-24T07:16:59Z</time>
      </trkpt>
      <trkpt lat="47.18414" lon="-1.61411">
        <ele>9.2698975</ele>
        <time>2010-10-24T07:17:08Z</time>
      </trkpt>
      <trkpt lat="47.18436" lon="-1.61383">
        <ele>9.7506104</ele>
        <time>2010-10-24T07:17:19Z</time>
      </trkpt>
      <trkpt lat="47.18434" lon="-1.61312">
        <ele>9.7506104</ele>
        <time>2010-10-24T07:17:30Z</time>
      </trkpt>
      <trkpt lat="47.18429" lon="-1.61243">
        <ele>10.2312012</ele>
        <time>2010-10-24T07:17:41Z</time>
      </trkpt>
      <trkpt lat="47.18423" lon="-1.6117">
        <ele>10.711792</ele>
        <time>2010-10-24T07:17:52Z</time>
      </trkpt>
      <trkpt lat="47.18418" lon="-1.611">
        <ele>9.7506104</ele>
        <time>2010-10-24T07:18:02Z</time>
      </trkpt>
      <trkpt lat="47.18413" lon="-1.61028">
        <ele>9.7506104</ele>
        <time>2010-10-24T07:18:12Z</time>
      </trkpt>
      <trkpt lat="47.18411" lon="-1.60956">
        <ele>10.2312012</ele>
        <time>2010-10-24T07:18:22Z</time>
      </trkpt>
      <trkpt lat="47.18413" lon="-1.60883">
        <ele>9.7506104</ele>
        <time>2010-10-24T07:18:32Z</time>
      </trkpt>
      <trkpt lat="47.18416" lon="-1.60813">
        <ele>9.2698975</ele>
        <time>2010-10-24T07:18:41Z</time>
      </trkpt>
      <trkpt lat="47.18423" lon="-1.60743">
        <ele>8.7891846</ele>
        <time>2010-10-24T07:18:50Z</time>
      </trkpt>
      <trkpt lat="47.18432" lon="-1.60674">
        <ele>8.7891846</ele>
        <time>2010-10-24T07:18:59Z</time>
      </trkpt>
      <trkpt lat="47.18444" lon="-1.60605">
        <ele>9.2698975</ele>
        <time>2010-10-24T07:19:08Z</time>
      </trkpt>
      <trkpt lat="47.18458" lon="-1.60535">
        <ele>9.2698975</ele>
        <time>2010-10-24T07:19:17Z</time>
      </trkpt>
      <trkpt lat="47.18473" lon="-1.60473">
        <ele>8.3085938</ele>
        <time>2010-10-24T07:19:25Z</time>
      </trkpt>
      <trkpt lat="47.18491" lon="-1.60412">
        <ele>7.347168</ele>
        <time>2010-10-24T07:19:33Z</time>
      </trkpt>
      <trkpt lat="47.18512" lon="-1.60347">
        <ele>7.8278809</ele>
        <time>2010-10-24T07:19:42Z</time>
      </trkpt>
      <trkpt lat="47.18536" lon="-1.60284">
        <ele>6.8664551</ele>
        <time>2010-10-24T07:19:51Z</time>
      </trkpt>
      <trkpt lat="47.18558" lon="-1.60227">
        <ele>5.9052734</ele>
        <time>2010-10-24T07:19:59Z</time>
      </trkpt>
      <trkpt lat="47.18581" lon="-1.60162">
        <ele>5.4245605</ele>
        <time>2010-10-24T07:20:08Z</time>
      </trkpt>
      <trkpt lat="47.18605" lon="-1.60097">
        <ele>5.9052734</ele>
        <time>2010-10-24T07:20:17Z</time>
      </trkpt>
      <trkpt lat="47.18625" lon="-1.60034">
        <ele>6.3858643</ele>
        <time>2010-10-24T07:20:26Z</time>
      </trkpt>
      <trkpt lat="47.18649" lon="-1.5997">
        <ele>6.3858643</ele>
        <time>2010-10-24T07:20:35Z</time>
      </trkpt>
      <trkpt lat="47.18671" lon="-1.59908">
        <ele>5.4245605</ele>
        <time>2010-10-24T07:20:44Z</time>
      </trkpt>
      <trkpt lat="47.18675" lon="-1.5985">
        <ele>4.9438477</ele>
        <time>2010-10-24T07:20:54Z</time>
      </trkpt>
      <trkpt lat="47.18634" lon="-1.59826">
        <ele>5.4245605</ele>
        <time>2010-10-24T07:21:03Z</time>
      </trkpt>
      <trkpt lat="47.1863" lon="-1.59759">
        <ele>5.4245605</ele>
        <time>2010-10-24T07:21:11Z</time>
      </trkpt>
      <trkpt lat="47.18643" lon="-1.59693">
        <ele>5.4245605</ele>
        <time>2010-10-24T07:21:20Z</time>
      </trkpt>
      <trkpt lat="47.18657" lon="-1.59626">
        <ele>5.9052734</ele>
        <time>2010-10-24T07:21:28Z</time>
      </trkpt>
      <trkpt lat="47.18671" lon="-1.59554">
        <ele>5.9052734</ele>
        <time>2010-10-24T07:21:37Z</time>
      </trkpt>
      <trkpt lat="47.18679" lon="-1.59482">
        <ele>5.9052734</ele>
        <time>2010-10-24T07:21:46Z</time>
      </trkpt>
      <trkpt lat="47.18678" lon="-1.59408">
        <ele>5.4245605</ele>
        <time>2010-10-24T07:21:55Z</time>
      </trkpt>
      <trkpt lat="47.18683" lon="-1.59342">
        <ele>5.9052734</ele>
        <time>2010-10-24T07:22:03Z</time>
      </trkpt>
      <trkpt lat="47.18694" lon="-1.59277">
        <ele>5.4245605</ele>
        <time>2010-10-24T07:22:11Z</time>
      </trkpt>
      <trkpt lat="47.18695" lon="-1.59201">
        <ele>4.4632568</ele>
        <time>2010-10-24T07:22:20Z</time>
      </trkpt>
      <trkpt lat="47.18698" lon="-1.59128">
        <ele>4.9438477</ele>
        <time>2010-10-24T07:22:29Z</time>
      </trkpt>
      <trkpt lat="47.18696" lon="-1.59058">
        <ele>4.9438477</ele>
        <time>2010-10-24T07:22:37Z</time>
      </trkpt>
      <trkpt lat="47.18692" lon="-1.5899">
        <ele>5.4245605</ele>
        <time>2010-10-24T07:22:45Z</time>
      </trkpt>
      <trkpt lat="47.18686" lon="-1.58917">
        <ele>5.9052734</ele>
        <time>2010-10-24T07:22:54Z</time>
      </trkpt>
      <trkpt lat="47.18692" lon="-1.58848">
        <ele>5.9052734</ele>
        <time>2010-10-24T07:23:02Z</time>
      </trkpt>
      <trkpt lat="47.18705" lon="-1.58781">
        <ele>5.4245605</ele>
        <time>2010-10-24T07:23:10Z</time>
      </trkpt>
      <trkpt lat="47.18723" lon="-1.58718">
        <ele>5.4245605</ele>
        <time>2010-10-24T07:23:19Z</time>
      </trkpt>
      <trkpt lat="47.18749" lon="-1.58699">
        <ele>4.9438477</ele>
        <time>2010-10-24T07:23:30Z</time>
      </trkpt>
      <trkpt lat="47.18782" lon="-1.58667">
        <ele>7.8278809</ele>
        <time>2010-10-24T07:23:43Z</time>
      </trkpt>
      <trkpt lat="47.18794" lon="-1.58602">
        <ele>7.347168</ele>
        <time>2010-10-24T07:23:51Z</time>
      </trkpt>
      <trkpt lat="47.18776" lon="-1.58553">
        <ele>6.3858643</ele>
        <time>2010-10-24T07:24:01Z</time>
      </trkpt>
      <trkpt lat="47.18801" lon="-1.58501">
        <ele>6.8664551</ele>
        <time>2010-10-24T07:24:11Z</time>
      </trkpt>
      <trkpt lat="47.18826" lon="-1.5844">
        <ele>8.3085938</ele>
        <time>2010-10-24T07:24:27Z</time>
      </trkpt>
      <trkpt lat="47.18833" lon="-1.5836">
        <ele>9.7506104</ele>
        <time>2010-10-24T07:24:39Z</time>
      </trkpt>
      <trkpt lat="47.18853" lon="-1.58282">
        <ele>8.3085938</ele>
        <time>2010-10-24T07:24:49Z</time>
      </trkpt>
      <trkpt lat="47.18875" lon="-1.58205">
        <ele>5.9052734</ele>
        <time>2010-10-24T07:24:59Z</time>
      </trkpt>
      <trkpt lat="47.18897" lon="-1.58145">
        <ele>4.9438477</ele>
        <time>2010-10-24T07:25:08Z</time>
      </trkpt>
      <trkpt lat="47.18912" lon="-1.58077">
        <ele>6.8664551</ele>
        <time>2010-10-24T07:25:19Z</time>
      </trkpt>
      <trkpt lat="47.18919" lon="-1.58009">
        <ele>5.4245605</ele>
        <time>2010-10-24T07:25:28Z</time>
      </trkpt>
      <trkpt lat="47.18926" lon="-1.57942">
        <ele>-1.3046875</ele>
        <time>2010-10-24T07:25:39Z</time>
      </trkpt>
      <trkpt lat="47.18928" lon="-1.57872">
        <ele>-6.5919189</ele>
        <time>2010-10-24T07:26:00Z</time>
      </trkpt>
      <trkpt lat="47.18922" lon="-1.57908">
        <ele>-3.7078857</ele>
        <time>2010-10-24T07:30:05Z</time>
      </trkpt>
      <trkpt lat="47.18921" lon="-1.5798">
        <ele>-7.5531006</ele>
        <time>2010-10-24T07:30:16Z</time>
      </trkpt>
      <trkpt lat="47.18918" lon="-1.58055">
        <ele>-11.3984375</ele>
        <time>2010-10-24T07:30:27Z</time>
      </trkpt>
      <trkpt lat="47.18907" lon="-1.58127">
        <ele>-6.1112061</ele>
        <time>2010-10-24T07:30:37Z</time>
      </trkpt>
      <trkpt lat="47.18881" lon="-1.58193">
        <ele>-0.8240967</ele>
        <time>2010-10-24T07:30:47Z</time>
      </trkpt>
      <trkpt lat="47.18862" lon="-1.58256">
        <ele>1.0986328</ele>
        <time>2010-10-24T07:30:57Z</time>
      </trkpt>
      <trkpt lat="47.18842" lon="-1.58318">
        <ele>1.5793457</ele>
        <time>2010-10-24T07:31:08Z</time>
      </trkpt>
      <trkpt lat="47.18833" lon="-1.58384">
        <ele>-3.7078857</ele>
        <time>2010-10-24T07:31:21Z</time>
      </trkpt>
      <trkpt lat="47.18846" lon="-1.58387">
        <ele>-8.0339355</ele>
        <time>2010-10-24T07:39:16Z</time>
      </trkpt>
      <trkpt lat="47.18856" lon="-1.58315">
        <ele>-1.3046875</ele>
        <time>2010-10-24T07:39:36Z</time>
      </trkpt>
      <trkpt lat="47.18869" lon="-1.58249">
        <ele>-0.8240967</ele>
        <time>2010-10-24T07:39:49Z</time>
      </trkpt>
      <trkpt lat="47.18886" lon="-1.58184">
        <ele>0.1374512</ele>
        <time>2010-10-24T07:40:01Z</time>
      </trkpt>
      <trkpt lat="47.18906" lon="-1.58124">
        <ele>1.5793457</ele>
        <time>2010-10-24T07:40:13Z</time>
      </trkpt>
      <trkpt lat="47.18917" lon="-1.58058">
        <ele>2.0600586</ele>
        <time>2010-10-24T07:40:32Z</time>
      </trkpt>
      <trkpt lat="47.18924" lon="-1.57991">
        <ele>0.1374512</ele>
        <time>2010-10-24T07:40:43Z</time>
      </trkpt>
      <trkpt lat="47.18928" lon="-1.57919">
        <ele>-1.7852783</ele>
        <time>2010-10-24T07:40:56Z</time>
      </trkpt>
      <trkpt lat="47.18928" lon="-1.57845">
        <ele>2.0600586</ele>
        <time>2010-10-24T07:41:22Z</time>
      </trkpt>
      <trkpt lat="47.18944" lon="-1.57775">
        <ele>2.5406494</ele>
        <time>2010-10-24T07:41:47Z</time>
      </trkpt>
      <trkpt lat="47.18933" lon="-1.5772">
        <ele>3.0212402</ele>
        <time>2010-10-24T07:42:02Z</time>
      </trkpt>
      <trkpt lat="47.18889" lon="-1.57693">
        <ele>6.8664551</ele>
        <time>2010-10-24T07:42:16Z</time>
      </trkpt>
      <trkpt lat="47.18843" lon="-1.57675">
        <ele>13.5958252</ele>
        <time>2010-10-24T07:42:31Z</time>
      </trkpt>
      <trkpt lat="47.18804" lon="-1.57652">
        <ele>19.3637695</ele>
        <time>2010-10-24T07:42:47Z</time>
      </trkpt>
      <trkpt lat="47.1877" lon="-1.57629">
        <ele>17.9217529</ele>
        <time>2010-10-24T07:43:04Z</time>
      </trkpt>
      <trkpt lat="47.18724" lon="-1.57625">
        <ele>18.4023438</ele>
        <time>2010-10-24T07:43:19Z</time>
      </trkpt>
      <trkpt lat="47.18675" lon="-1.57625">
        <ele>19.3637695</ele>
        <time>2010-10-24T07:43:34Z</time>
      </trkpt>
      <trkpt lat="47.18628" lon="-1.57639">
        <ele>20.8056641</ele>
        <time>2010-10-24T07:43:50Z</time>
      </trkpt>
      <trkpt lat="47.1862" lon="-1.57576">
        <ele>19.3637695</ele>
        <time>2010-10-24T07:44:02Z</time>
      </trkpt>
      <trkpt lat="47.18638" lon="-1.5751">
        <ele>17.4411621</ele>
        <time>2010-10-24T07:44:11Z</time>
      </trkpt>
      <trkpt lat="47.18671" lon="-1.57465">
        <ele>15.0377197</ele>
        <time>2010-10-24T07:44:18Z</time>
      </trkpt>
      <trkpt lat="47.18717" lon="-1.57438">
        <ele>11.6732178</ele>
        <time>2010-10-24T07:44:25Z</time>
      </trkpt>
      <trkpt lat="47.18758" lon="-1.5744">
        <ele>11.1925049</ele>
        <time>2010-10-24T07:44:36Z</time>
      </trkpt>
      <trkpt lat="47.18791" lon="-1.57491">
        <ele>9.7506104</ele>
        <time>2010-10-24T07:44:44Z</time>
      </trkpt>
      <trkpt lat="47.18834" lon="-1.57514">
        <ele>9.2698975</ele>
        <time>2010-10-24T07:44:51Z</time>
      </trkpt>
      <trkpt lat="47.18871" lon="-1.57511">
        <ele>10.711792</ele>
        <time>2010-10-24T07:45:06Z</time>
      </trkpt>
      <trkpt lat="47.18879" lon="-1.5746">
        <ele>11.1925049</ele>
        <time>2010-10-24T07:45:22Z</time>
      </trkpt>
      <trkpt lat="47.18926" lon="-1.57464">
        <ele>15.5184326</ele>
        <time>2010-10-24T07:45:42Z</time>
      </trkpt>
      <trkpt lat="47.18969" lon="-1.57487">
        <ele>21.286377</ele>
        <time>2010-10-24T07:45:54Z</time>
      </trkpt>
      <trkpt lat="47.19016" lon="-1.57508">
        <ele>21.286377</ele>
        <time>2010-10-24T07:46:07Z</time>
      </trkpt>
      <trkpt lat="47.19023" lon="-1.57545">
        <ele>15.9990234</ele>
        <time>2010-10-24T07:46:23Z</time>
      </trkpt>
      <trkpt lat="47.18999" lon="-1.57595">
        <ele>13.1151123</ele>
        <time>2010-10-24T07:46:33Z</time>
      </trkpt>
      <trkpt lat="47.18957" lon="-1.57582">
        <ele>11.1925049</ele>
        <time>2010-10-24T07:46:41Z</time>
      </trkpt>
      <trkpt lat="47.18911" lon="-1.57561">
        <ele>14.076416</ele>
        <time>2010-10-24T07:46:53Z</time>
      </trkpt>
      <trkpt lat="47.18867" lon="-1.57534">
        <ele>18.8830566</ele>
        <time>2010-10-24T07:47:04Z</time>
      </trkpt>
      <trkpt lat="47.18816" lon="-1.57508">
        <ele>18.8830566</ele>
        <time>2010-10-24T07:47:15Z</time>
      </trkpt>
      <trkpt lat="47.18775" lon="-1.57472">
        <ele>18.8830566</ele>
        <time>2010-10-24T07:47:26Z</time>
      </trkpt>
      <trkpt lat="47.18744" lon="-1.57419">
        <ele>20.3249512</ele>
        <time>2010-10-24T07:47:42Z</time>
      </trkpt>
      <trkpt lat="47.18696" lon="-1.57412">
        <ele>18.4023438</ele>
        <time>2010-10-24T07:47:51Z</time>
      </trkpt>
      <trkpt lat="47.1865" lon="-1.57402">
        <ele>18.4023438</ele>
        <time>2010-10-24T07:48:01Z</time>
      </trkpt>
      <trkpt lat="47.18608" lon="-1.57377">
        <ele>24.651001</ele>
        <time>2010-10-24T07:48:14Z</time>
      </trkpt>
      <trkpt lat="47.18561" lon="-1.57379">
        <ele>23.2089844</ele>
        <time>2010-10-24T07:48:27Z</time>
      </trkpt>
      <trkpt lat="47.18521" lon="-1.57406">
        <ele>19.3637695</ele>
        <time>2010-10-24T07:48:39Z</time>
      </trkpt>
      <trkpt lat="47.18472" lon="-1.57414">
        <ele>14.5570068</ele>
        <time>2010-10-24T07:48:51Z</time>
      </trkpt>
      <trkpt lat="47.18427" lon="-1.57401">
        <ele>19.3637695</ele>
        <time>2010-10-24T07:49:05Z</time>
      </trkpt>
      <trkpt lat="47.18379" lon="-1.57417">
        <ele>21.286377</ele>
        <time>2010-10-24T07:49:19Z</time>
      </trkpt>
      <trkpt lat="47.18334" lon="-1.5743">
        <ele>20.8056641</ele>
        <time>2010-10-24T07:49:33Z</time>
      </trkpt>
      <trkpt lat="47.18294" lon="-1.57454">
        <ele>16.9604492</ele>
        <time>2010-10-24T07:49:47Z</time>
      </trkpt>
      <trkpt lat="47.18253" lon="-1.57423">
        <ele>17.4411621</ele>
        <time>2010-10-24T07:50:11Z</time>
      </trkpt>
      <trkpt lat="47.18197" lon="-1.57388">
        <ele>21.286377</ele>
        <time>2010-10-24T07:51:37Z</time>
      </trkpt>
      <trkpt lat="47.18141" lon="-1.57369">
        <ele>18.8830566</ele>
        <time>2010-10-24T07:51:53Z</time>
      </trkpt>
      <trkpt lat="47.1809" lon="-1.57387">
        <ele>19.3637695</ele>
        <time>2010-10-24T07:52:05Z</time>
      </trkpt>
      <trkpt lat="47.18043" lon="-1.57412">
        <ele>19.3637695</ele>
        <time>2010-10-24T07:52:16Z</time>
      </trkpt>
      <trkpt lat="47.1799" lon="-1.57414">
        <ele>15.5184326</ele>
        <time>2010-10-24T07:52:27Z</time>
      </trkpt>
      <trkpt lat="47.1794" lon="-1.57397">
        <ele>13.5958252</ele>
        <time>2010-10-24T07:52:39Z</time>
      </trkpt>
      <trkpt lat="47.17893" lon="-1.57357">
        <ele>16.4797363</ele>
        <time>2010-10-24T07:52:49Z</time>
      </trkpt>
      <trkpt lat="47.17862" lon="-1.57295">
        <ele>20.3249512</ele>
        <time>2010-10-24T07:52:59Z</time>
      </trkpt>
      <trkpt lat="47.17824" lon="-1.57244">
        <ele>21.7669678</ele>
        <time>2010-10-24T07:53:11Z</time>
      </trkpt>
      <trkpt lat="47.17783" lon="-1.57193">
        <ele>25.1317139</ele>
        <time>2010-10-24T07:53:22Z</time>
      </trkpt>
      <trkpt lat="47.17744" lon="-1.57135">
        <ele>27.0543213</ele>
        <time>2010-10-24T07:53:33Z</time>
      </trkpt>
      <trkpt lat="47.17709" lon="-1.57077">
        <ele>28.9769287</ele>
        <time>2010-10-24T07:53:45Z</time>
      </trkpt>
      <trkpt lat="47.17673" lon="-1.57026">
        <ele>29.4575195</ele>
        <time>2010-10-24T07:53:55Z</time>
      </trkpt>
      <trkpt lat="47.17635" lon="-1.56972">
        <ele>28.0155029</ele>
        <time>2010-10-24T07:54:04Z</time>
      </trkpt>
      <trkpt lat="47.17605" lon="-1.56918">
        <ele>28.4962158</ele>
        <time>2010-10-24T07:54:12Z</time>
      </trkpt>
      <trkpt lat="47.17571" lon="-1.56863">
        <ele>31.8607178</ele>
        <time>2010-10-24T07:54:24Z</time>
      </trkpt>
      <trkpt lat="47.17563" lon="-1.56789">
        <ele>29.4575195</ele>
        <time>2010-10-24T07:54:36Z</time>
      </trkpt>
      <trkpt lat="47.17556" lon="-1.56719">
        <ele>28.9769287</ele>
        <time>2010-10-24T07:54:56Z</time>
      </trkpt>
      <trkpt lat="47.17531" lon="-1.56667">
        <ele>28.9769287</ele>
        <time>2010-10-24T07:55:08Z</time>
      </trkpt>
      <trkpt lat="47.17492" lon="-1.5663">
        <ele>28.4962158</ele>
        <time>2010-10-24T07:55:17Z</time>
      </trkpt>
      <trkpt lat="47.17446" lon="-1.56608">
        <ele>26.0928955</ele>
        <time>2010-10-24T07:55:25Z</time>
      </trkpt>
      <trkpt lat="47.17407" lon="-1.56574">
        <ele>25.1317139</ele>
        <time>2010-10-24T07:55:33Z</time>
      </trkpt>
      <trkpt lat="47.17379" lon="-1.56526">
        <ele>26.0928955</ele>
        <time>2010-10-24T07:55:42Z</time>
      </trkpt>
      <trkpt lat="47.17333" lon="-1.56514">
        <ele>27.0543213</ele>
        <time>2010-10-24T07:55:52Z</time>
      </trkpt>
      <trkpt lat="47.17295" lon="-1.56473">
        <ele>27.5349121</ele>
        <time>2010-10-24T07:56:05Z</time>
      </trkpt>
      <trkpt lat="47.17255" lon="-1.5643">
        <ele>28.0155029</ele>
        <time>2010-10-24T07:56:15Z</time>
      </trkpt>
      <trkpt lat="47.1723" lon="-1.56363">
        <ele>26.5736084</ele>
        <time>2010-10-24T07:56:25Z</time>
      </trkpt>
      <trkpt lat="47.17193" lon="-1.56344">
        <ele>25.6123047</ele>
        <time>2010-10-24T07:56:36Z</time>
      </trkpt>
      <trkpt lat="47.17148" lon="-1.56348">
        <ele>24.651001</ele>
        <time>2010-10-24T07:56:45Z</time>
      </trkpt>
      <trkpt lat="47.17116" lon="-1.56299">
        <ele>24.651001</ele>
        <time>2010-10-24T07:56:53Z</time>
      </trkpt>
      <trkpt lat="47.17091" lon="-1.56243">
        <ele>25.1317139</ele>
        <time>2010-10-24T07:57:02Z</time>
      </trkpt>
      <trkpt lat="47.17041" lon="-1.56251">
        <ele>23.6895752</ele>
        <time>2010-10-24T07:57:12Z</time>
      </trkpt>
      <trkpt lat="47.16989" lon="-1.56244">
        <ele>24.1702881</ele>
        <time>2010-10-24T07:57:21Z</time>
      </trkpt>
      <trkpt lat="47.16965" lon="-1.56185">
        <ele>25.1317139</ele>
        <time>2010-10-24T07:57:30Z</time>
      </trkpt>
      <trkpt lat="47.16928" lon="-1.56139">
        <ele>26.0928955</ele>
        <time>2010-10-24T07:57:39Z</time>
      </trkpt>
      <trkpt lat="47.16894" lon="-1.56093">
        <ele>26.5736084</ele>
        <time>2010-10-24T07:57:47Z</time>
      </trkpt>
      <trkpt lat="47.16857" lon="-1.56043">
        <ele>28.4962158</ele>
        <time>2010-10-24T07:57:56Z</time>
      </trkpt>
      <trkpt lat="47.16814" lon="-1.56016">
        <ele>28.4962158</ele>
        <time>2010-10-24T07:58:09Z</time>
      </trkpt>
      <trkpt lat="47.16765" lon="-1.56015">
        <ele>28.4962158</ele>
        <time>2010-10-24T07:58:19Z</time>
      </trkpt>
      <trkpt lat="47.16719" lon="-1.56019">
        <ele>28.0155029</ele>
        <time>2010-10-24T07:58:30Z</time>
      </trkpt>
      <trkpt lat="47.1667" lon="-1.56024">
        <ele>27.5349121</ele>
        <time>2010-10-24T07:58:41Z</time>
      </trkpt>
      <trkpt lat="47.1662" lon="-1.56029">
        <ele>27.5349121</ele>
        <time>2010-10-24T07:58:51Z</time>
      </trkpt>
      <trkpt lat="47.16572" lon="-1.56025">
        <ele>27.0543213</ele>
        <time>2010-10-24T07:59:01Z</time>
      </trkpt>
      <trkpt lat="47.16525" lon="-1.56002">
        <ele>27.0543213</ele>
        <time>2010-10-24T07:59:12Z</time>
      </trkpt>
      <trkpt lat="47.16476" lon="-1.55976">
        <ele>27.0543213</ele>
        <time>2010-10-24T07:59:22Z</time>
      </trkpt>
      <trkpt lat="47.16429" lon="-1.55953">
        <ele>27.0543213</ele>
        <time>2010-10-24T07:59:31Z</time>
      </trkpt>
      <trkpt lat="47.16378" lon="-1.55928">
        <ele>28.4962158</ele>
        <time>2010-10-24T07:59:41Z</time>
      </trkpt>
      <trkpt lat="47.16333" lon="-1.55902">
        <ele>28.9769287</ele>
        <time>2010-10-24T07:59:50Z</time>
      </trkpt>
      <trkpt lat="47.16281" lon="-1.55885">
        <ele>28.4962158</ele>
        <time>2010-10-24T07:59:59Z</time>
      </trkpt>
      <trkpt lat="47.16233" lon="-1.5588">
        <ele>28.4962158</ele>
        <time>2010-10-24T08:00:10Z</time>
      </trkpt>
      <trkpt lat="47.16228" lon="-1.55879">
        <ele>29.9381104</ele>
        <time>2010-10-24T08:02:42Z</time>
      </trkpt>
      <trkpt lat="47.16274" lon="-1.55882">
        <ele>30.8995361</ele>
        <time>2010-10-24T08:02:54Z</time>
      </trkpt>
      <trkpt lat="47.16321" lon="-1.55897">
        <ele>30.4188232</ele>
        <time>2010-10-24T08:03:06Z</time>
      </trkpt>
      <trkpt lat="47.16365" lon="-1.55922">
        <ele>32.3415527</ele>
        <time>2010-10-24T08:03:17Z</time>
      </trkpt>
      <trkpt lat="47.16411" lon="-1.55945">
        <ele>33.3028564</ele>
        <time>2010-10-24T08:03:26Z</time>
      </trkpt>
      <trkpt lat="47.1646" lon="-1.55969">
        <ele>33.7834473</ele>
        <time>2010-10-24T08:03:34Z</time>
      </trkpt>
      <trkpt lat="47.16504" lon="-1.55991">
        <ele>34.2641602</ele>
        <time>2010-10-24T08:03:41Z</time>
      </trkpt>
      <trkpt lat="47.16547" lon="-1.56011">
        <ele>35.7060547</ele>
        <time>2010-10-24T08:03:48Z</time>
      </trkpt>
      <trkpt lat="47.16595" lon="-1.56023">
        <ele>35.7060547</ele>
        <time>2010-10-24T08:03:56Z</time>
      </trkpt>
      <trkpt lat="47.16643" lon="-1.56022">
        <ele>37.1480713</ele>
        <time>2010-10-24T08:04:04Z</time>
      </trkpt>
      <trkpt lat="47.16691" lon="-1.56018">
        <ele>33.3028564</ele>
        <time>2010-10-24T08:04:13Z</time>
      </trkpt>
      <trkpt lat="47.16743" lon="-1.56011">
        <ele>34.2641602</ele>
        <time>2010-10-24T08:04:22Z</time>
      </trkpt>
      <trkpt lat="47.16769" lon="-1.56051">
        <ele>33.7834473</ele>
        <time>2010-10-24T08:04:33Z</time>
      </trkpt>
      <trkpt lat="47.16767" lon="-1.56127">
        <ele>30.8995361</ele>
        <time>2010-10-24T08:04:42Z</time>
      </trkpt>
      <trkpt lat="47.16741" lon="-1.56184">
        <ele>28.9769287</ele>
        <time>2010-10-24T08:04:50Z</time>
      </trkpt>
      <trkpt lat="47.16755" lon="-1.56235">
        <ele>30.4188232</ele>
        <time>2010-10-24T08:04:59Z</time>
      </trkpt>
      <trkpt lat="47.16788" lon="-1.56291">
        <ele>30.4188232</ele>
        <time>2010-10-24T08:05:07Z</time>
      </trkpt>
      <trkpt lat="47.16819" lon="-1.56348">
        <ele>28.9769287</ele>
        <time>2010-10-24T08:05:15Z</time>
      </trkpt>
      <trkpt lat="47.16821" lon="-1.56406">
        <ele>28.0155029</ele>
        <time>2010-10-24T08:05:44Z</time>
      </trkpt>
      <trkpt lat="47.16805" lon="-1.56475">
        <ele>27.5349121</ele>
        <time>2010-10-24T08:05:55Z</time>
      </trkpt>
      <trkpt lat="47.16792" lon="-1.56543">
        <ele>26.0928955</ele>
        <time>2010-10-24T08:06:05Z</time>
      </trkpt>
      <trkpt lat="47.16778" lon="-1.56615">
        <ele>23.6895752</ele>
        <time>2010-10-24T08:06:15Z</time>
      </trkpt>
      <trkpt lat="47.16769" lon="-1.56688">
        <ele>22.2475586</ele>
        <time>2010-10-24T08:06:25Z</time>
      </trkpt>
      <trkpt lat="47.16748" lon="-1.56751">
        <ele>21.7669678</ele>
        <time>2010-10-24T08:06:34Z</time>
      </trkpt>
      <trkpt lat="47.16719" lon="-1.56804">
        <ele>23.2089844</ele>
        <time>2010-10-24T08:06:42Z</time>
      </trkpt>
      <trkpt lat="47.167" lon="-1.56871">
        <ele>22.7282715</ele>
        <time>2010-10-24T08:06:51Z</time>
      </trkpt>
      <trkpt lat="47.16686" lon="-1.5694">
        <ele>23.2089844</ele>
        <time>2010-10-24T08:07:00Z</time>
      </trkpt>
      <trkpt lat="47.16671" lon="-1.57006">
        <ele>24.651001</ele>
        <time>2010-10-24T08:07:10Z</time>
      </trkpt>
      <trkpt lat="47.16692" lon="-1.57064">
        <ele>25.6123047</ele>
        <time>2010-10-24T08:07:20Z</time>
      </trkpt>
      <trkpt lat="47.1672" lon="-1.57119">
        <ele>27.0543213</ele>
        <time>2010-10-24T08:07:29Z</time>
      </trkpt>
      <trkpt lat="47.16735" lon="-1.57178">
        <ele>27.0543213</ele>
        <time>2010-10-24T08:07:40Z</time>
      </trkpt>
      <trkpt lat="47.16692" lon="-1.5721">
        <ele>27.5349121</ele>
        <time>2010-10-24T08:07:49Z</time>
      </trkpt>
      <trkpt lat="47.16653" lon="-1.57245">
        <ele>25.6123047</ele>
        <time>2010-10-24T08:07:56Z</time>
      </trkpt>
      <trkpt lat="47.16621" lon="-1.57281">
        <ele>26.0928955</ele>
        <time>2010-10-24T08:08:03Z</time>
      </trkpt>
      <trkpt lat="47.16574" lon="-1.57313">
        <ele>30.4188232</ele>
        <time>2010-10-24T08:08:12Z</time>
      </trkpt>
      <trkpt lat="47.16526" lon="-1.57312">
        <ele>32.8222656</ele>
        <time>2010-10-24T08:08:22Z</time>
      </trkpt>
      <trkpt lat="47.1648" lon="-1.57302">
        <ele>33.3028564</ele>
        <time>2010-10-24T08:08:32Z</time>
      </trkpt>
      <trkpt lat="47.16429" lon="-1.57294">
        <ele>32.3415527</ele>
        <time>2010-10-24T08:08:41Z</time>
      </trkpt>
      <trkpt lat="47.16381" lon="-1.57291">
        <ele>30.8995361</ele>
        <time>2010-10-24T08:08:49Z</time>
      </trkpt>
      <trkpt lat="47.16334" lon="-1.57305">
        <ele>30.8995361</ele>
        <time>2010-10-24T08:08:57Z</time>
      </trkpt>
      <trkpt lat="47.16286" lon="-1.57315">
        <ele>31.380127</ele>
        <time>2010-10-24T08:09:05Z</time>
      </trkpt>
      <trkpt lat="47.16239" lon="-1.57326">
        <ele>31.8607178</ele>
        <time>2010-10-24T08:09:13Z</time>
      </trkpt>
      <trkpt lat="47.16192" lon="-1.57343">
        <ele>31.380127</ele>
        <time>2010-10-24T08:09:21Z</time>
      </trkpt>
      <trkpt lat="47.16149" lon="-1.57358">
        <ele>31.380127</ele>
        <time>2010-10-24T08:09:28Z</time>
      </trkpt>
      <trkpt lat="47.161" lon="-1.57375">
        <ele>31.8607178</ele>
        <time>2010-10-24T08:09:36Z</time>
      </trkpt>
      <trkpt lat="47.16047" lon="-1.57383">
        <ele>32.8222656</ele>
        <time>2010-10-24T08:09:44Z</time>
      </trkpt>
      <trkpt lat="47.16001" lon="-1.5737">
        <ele>33.3028564</ele>
        <time>2010-10-24T08:09:51Z</time>
      </trkpt>
      <trkpt lat="47.15959" lon="-1.57345">
        <ele>33.7834473</ele>
        <time>2010-10-24T08:09:58Z</time>
      </trkpt>
      <trkpt lat="47.15928" lon="-1.57295">
        <ele>33.7834473</ele>
        <time>2010-10-24T08:10:06Z</time>
      </trkpt>
      <trkpt lat="47.15934" lon="-1.57223">
        <ele>35.2254639</ele>
        <time>2010-10-24T08:10:17Z</time>
      </trkpt>
      <trkpt lat="47.15935" lon="-1.57154">
        <ele>33.7834473</ele>
        <time>2010-10-24T08:10:28Z</time>
      </trkpt>
      <trkpt lat="47.15906" lon="-1.571">
        <ele>27.5349121</ele>
        <time>2010-10-24T08:10:49Z</time>
      </trkpt>
      <trkpt lat="47.15911" lon="-1.57047">
        <ele>21.286377</ele>
        <time>2010-10-24T08:11:03Z</time>
      </trkpt>
      <trkpt lat="47.15948" lon="-1.57011">
        <ele>15.9990234</ele>
        <time>2010-10-24T08:11:21Z</time>
      </trkpt>
      <trkpt lat="47.15919" lon="-1.56992">
        <ele>15.9990234</ele>
        <time>2010-10-24T08:11:40Z</time>
      </trkpt>
      <trkpt lat="47.15879" lon="-1.57028">
        <ele>12.1538086</ele>
        <time>2010-10-24T08:12:02Z</time>
      </trkpt>
      <trkpt lat="47.15874" lon="-1.57001">
        <ele>12.6343994</ele>
        <time>2010-10-24T08:12:23Z</time>
      </trkpt>
      <trkpt lat="47.15904" lon="-1.56948">
        <ele>11.6732178</ele>
        <time>2010-10-24T08:12:39Z</time>
      </trkpt>
      <trkpt lat="47.15934" lon="-1.56898">
        <ele>13.1151123</ele>
        <time>2010-10-24T08:12:53Z</time>
      </trkpt>
      <trkpt lat="47.15973" lon="-1.569">
        <ele>16.9604492</ele>
        <time>2010-10-24T08:13:08Z</time>
      </trkpt>
      <trkpt lat="47.15999" lon="-1.56949">
        <ele>21.286377</ele>
        <time>2010-10-24T08:13:27Z</time>
      </trkpt>
      <trkpt lat="47.16024" lon="-1.57002">
        <ele>23.6895752</ele>
        <time>2010-10-24T08:13:57Z</time>
      </trkpt>
      <trkpt lat="47.16014" lon="-1.56984">
        <ele>27.5349121</ele>
        <time>2010-10-24T08:21:01Z</time>
      </trkpt>
      <trkpt lat="47.15996" lon="-1.56941">
        <ele>28.4962158</ele>
        <time>2010-10-24T08:21:34Z</time>
      </trkpt>
      <trkpt lat="47.15992" lon="-1.56938">
        <ele>27.0543213</ele>
        <time>2010-10-24T08:23:03Z</time>
      </trkpt>
      <trkpt lat="47.15958" lon="-1.56886">
        <ele>27.5349121</ele>
        <time>2010-10-24T08:23:15Z</time>
      </trkpt>
      <trkpt lat="47.15924" lon="-1.56848">
        <ele>28.4962158</ele>
        <time>2010-10-24T08:23:43Z</time>
      </trkpt>
      <trkpt lat="47.15891" lon="-1.56822">
        <ele>27.0543213</ele>
        <time>2010-10-24T08:24:10Z</time>
      </trkpt>
      <trkpt lat="47.15857" lon="-1.56865">
        <ele>27.0543213</ele>
        <time>2010-10-24T08:24:44Z</time>
      </trkpt>
      <trkpt lat="47.1582" lon="-1.56906">
        <ele>27.5349121</ele>
        <time>2010-10-24T08:25:13Z</time>
      </trkpt>
      <trkpt lat="47.15783" lon="-1.56947">
        <ele>27.5349121</ele>
        <time>2010-10-24T08:26:06Z</time>
      </trkpt>
      <trkpt lat="47.15755" lon="-1.56961">
        <ele>28.0155029</ele>
        <time>2010-10-24T08:26:40Z</time>
      </trkpt>
      <trkpt lat="47.15782" lon="-1.57017">
        <ele>27.5349121</ele>
        <time>2010-10-24T08:26:54Z</time>
      </trkpt>
      <trkpt lat="47.15815" lon="-1.57057">
        <ele>28.0155029</ele>
        <time>2010-10-24T08:27:07Z</time>
      </trkpt>
      <trkpt lat="47.15853" lon="-1.57061">
        <ele>31.380127</ele>
        <time>2010-10-24T08:27:22Z</time>
      </trkpt>
      <trkpt lat="47.15893" lon="-1.57094">
        <ele>37.1480713</ele>
        <time>2010-10-24T08:27:37Z</time>
      </trkpt>
      <trkpt lat="47.15935" lon="-1.57141">
        <ele>44.838623</ele>
        <time>2010-10-24T08:27:53Z</time>
      </trkpt>
      <trkpt lat="47.15936" lon="-1.57198">
        <ele>46.2806396</ele>
        <time>2010-10-24T08:28:09Z</time>
      </trkpt>
      <trkpt lat="47.15924" lon="-1.57262">
        <ele>43.3966064</ele>
        <time>2010-10-24T08:28:23Z</time>
      </trkpt>
      <trkpt lat="47.15949" lon="-1.57323">
        <ele>40.0321045</ele>
        <time>2010-10-24T08:28:36Z</time>
      </trkpt>
      <trkpt lat="47.1599" lon="-1.57358">
        <ele>40.5128174</ele>
        <time>2010-10-24T08:28:47Z</time>
      </trkpt>
      <trkpt lat="47.16039" lon="-1.57376">
        <ele>39.5512695</ele>
        <time>2010-10-24T08:28:57Z</time>
      </trkpt>
      <trkpt lat="47.1609" lon="-1.57373">
        <ele>37.6286621</ele>
        <time>2010-10-24T08:29:05Z</time>
      </trkpt>
      <trkpt lat="47.16139" lon="-1.57358">
        <ele>35.7060547</ele>
        <time>2010-10-24T08:29:13Z</time>
      </trkpt>
      <trkpt lat="47.16188" lon="-1.57341">
        <ele>34.744873</ele>
        <time>2010-10-24T08:29:21Z</time>
      </trkpt>
      <trkpt lat="47.16236" lon="-1.57324">
        <ele>33.7834473</ele>
        <time>2010-10-24T08:29:29Z</time>
      </trkpt>
      <trkpt lat="47.16282" lon="-1.57312">
        <ele>34.744873</ele>
        <time>2010-10-24T08:29:36Z</time>
      </trkpt>
      <trkpt lat="47.16333" lon="-1.57302">
        <ele>34.2641602</ele>
        <time>2010-10-24T08:29:44Z</time>
      </trkpt>
      <trkpt lat="47.16385" lon="-1.57287">
        <ele>33.7834473</ele>
        <time>2010-10-24T08:29:52Z</time>
      </trkpt>
      <trkpt lat="47.16431" lon="-1.57289">
        <ele>34.2641602</ele>
        <time>2010-10-24T08:29:59Z</time>
      </trkpt>
      <trkpt lat="47.16482" lon="-1.57299">
        <ele>35.2254639</ele>
        <time>2010-10-24T08:30:07Z</time>
      </trkpt>
      <trkpt lat="47.16528" lon="-1.57307">
        <ele>34.2641602</ele>
        <time>2010-10-24T08:30:15Z</time>
      </trkpt>
      <trkpt lat="47.16552" lon="-1.57351">
        <ele>35.2254639</ele>
        <time>2010-10-24T08:30:25Z</time>
      </trkpt>
      <trkpt lat="47.16553" lon="-1.57424">
        <ele>36.1867676</ele>
        <time>2010-10-24T08:30:34Z</time>
      </trkpt>
      <trkpt lat="47.16548" lon="-1.57493">
        <ele>36.6674805</ele>
        <time>2010-10-24T08:30:44Z</time>
      </trkpt>
      <trkpt lat="47.16568" lon="-1.57532">
        <ele>35.7060547</ele>
        <time>2010-10-24T08:30:54Z</time>
      </trkpt>
      <trkpt lat="47.16614" lon="-1.57544">
        <ele>35.2254639</ele>
        <time>2010-10-24T08:31:02Z</time>
      </trkpt>
      <trkpt lat="47.1664" lon="-1.57582">
        <ele>34.2641602</ele>
        <time>2010-10-24T08:31:11Z</time>
      </trkpt>
      <trkpt lat="47.16614" lon="-1.57639">
        <ele>33.7834473</ele>
        <time>2010-10-24T08:31:19Z</time>
      </trkpt>
      <trkpt lat="47.16581" lon="-1.57687">
        <ele>32.8222656</ele>
        <time>2010-10-24T08:31:28Z</time>
      </trkpt>
      <trkpt lat="47.16551" lon="-1.57746">
        <ele>32.8222656</ele>
        <time>2010-10-24T08:31:37Z</time>
      </trkpt>
      <trkpt lat="47.16522" lon="-1.57797">
        <ele>32.8222656</ele>
        <time>2010-10-24T08:31:45Z</time>
      </trkpt>
      <trkpt lat="47.1649" lon="-1.57848">
        <ele>32.8222656</ele>
        <time>2010-10-24T08:31:56Z</time>
      </trkpt>
      <trkpt lat="47.1646" lon="-1.57898">
        <ele>33.7834473</ele>
        <time>2010-10-24T08:32:09Z</time>
      </trkpt>
      <trkpt lat="47.16416" lon="-1.57927">
        <ele>33.7834473</ele>
        <time>2010-10-24T08:32:20Z</time>
      </trkpt>
      <trkpt lat="47.16373" lon="-1.5796">
        <ele>32.8222656</ele>
        <time>2010-10-24T08:32:30Z</time>
      </trkpt>
      <trkpt lat="47.16331" lon="-1.57993">
        <ele>32.3415527</ele>
        <time>2010-10-24T08:32:39Z</time>
      </trkpt>
      <trkpt lat="47.1629" lon="-1.58023">
        <ele>31.8607178</ele>
        <time>2010-10-24T08:32:47Z</time>
      </trkpt>
      <trkpt lat="47.16247" lon="-1.58053">
        <ele>30.8995361</ele>
        <time>2010-10-24T08:32:55Z</time>
      </trkpt>
      <trkpt lat="47.16201" lon="-1.58084">
        <ele>29.9381104</ele>
        <time>2010-10-24T08:33:03Z</time>
      </trkpt>
      <trkpt lat="47.16155" lon="-1.58099">
        <ele>28.9769287</ele>
        <time>2010-10-24T08:33:11Z</time>
      </trkpt>
      <trkpt lat="47.16151" lon="-1.58151">
        <ele>27.5349121</ele>
        <time>2010-10-24T08:33:20Z</time>
      </trkpt>
      <trkpt lat="47.16168" lon="-1.58216">
        <ele>27.5349121</ele>
        <time>2010-10-24T08:33:27Z</time>
      </trkpt>
      <trkpt lat="47.16191" lon="-1.58279">
        <ele>27.0543213</ele>
        <time>2010-10-24T08:33:34Z</time>
      </trkpt>
      <trkpt lat="47.16213" lon="-1.58339">
        <ele>26.5736084</ele>
        <time>2010-10-24T08:33:41Z</time>
      </trkpt>
      <trkpt lat="47.16239" lon="-1.58403">
        <ele>26.0928955</ele>
        <time>2010-10-24T08:33:49Z</time>
      </trkpt>
      <trkpt lat="47.16263" lon="-1.58461">
        <ele>26.0928955</ele>
        <time>2010-10-24T08:33:57Z</time>
      </trkpt>
      <trkpt lat="47.16285" lon="-1.58521">
        <ele>26.0928955</ele>
        <time>2010-10-24T08:34:09Z</time>
      </trkpt>
      <trkpt lat="47.16252" lon="-1.58568">
        <ele>27.5349121</ele>
        <time>2010-10-24T08:34:20Z</time>
      </trkpt>
      <trkpt lat="47.16215" lon="-1.58616">
        <ele>27.5349121</ele>
        <time>2010-10-24T08:34:30Z</time>
      </trkpt>
      <trkpt lat="47.1618" lon="-1.58659">
        <ele>28.0155029</ele>
        <time>2010-10-24T08:34:39Z</time>
      </trkpt>
      <trkpt lat="47.16144" lon="-1.58708">
        <ele>28.9769287</ele>
        <time>2010-10-24T08:34:49Z</time>
      </trkpt>
      <trkpt lat="47.16107" lon="-1.58756">
        <ele>28.9769287</ele>
        <time>2010-10-24T08:34:59Z</time>
      </trkpt>
      <trkpt lat="47.16072" lon="-1.58801">
        <ele>29.4575195</ele>
        <time>2010-10-24T08:35:08Z</time>
      </trkpt>
      <trkpt lat="47.16037" lon="-1.58845">
        <ele>29.9381104</ele>
        <time>2010-10-24T08:35:17Z</time>
      </trkpt>
      <trkpt lat="47.16003" lon="-1.58891">
        <ele>30.4188232</ele>
        <time>2010-10-24T08:35:26Z</time>
      </trkpt>
      <trkpt lat="47.15971" lon="-1.58941">
        <ele>29.9381104</ele>
        <time>2010-10-24T08:35:35Z</time>
      </trkpt>
      <trkpt lat="47.15938" lon="-1.58996">
        <ele>30.4188232</ele>
        <time>2010-10-24T08:35:44Z</time>
      </trkpt>
      <trkpt lat="47.15909" lon="-1.59046">
        <ele>30.8995361</ele>
        <time>2010-10-24T08:35:52Z</time>
      </trkpt>
      <trkpt lat="47.1588" lon="-1.59096">
        <ele>30.8995361</ele>
        <time>2010-10-24T08:36:00Z</time>
      </trkpt>
      <trkpt lat="47.15848" lon="-1.59152">
        <ele>31.8607178</ele>
        <time>2010-10-24T08:36:09Z</time>
      </trkpt>
      <trkpt lat="47.15816" lon="-1.59208">
        <ele>31.380127</ele>
        <time>2010-10-24T08:36:18Z</time>
      </trkpt>
      <trkpt lat="47.15799" lon="-1.59269">
        <ele>30.8995361</ele>
        <time>2010-10-24T08:36:26Z</time>
      </trkpt>
      <trkpt lat="47.15788" lon="-1.59336">
        <ele>30.8995361</ele>
        <time>2010-10-24T08:36:34Z</time>
      </trkpt>
      <trkpt lat="47.15777" lon="-1.59406">
        <ele>30.4188232</ele>
        <time>2010-10-24T08:36:42Z</time>
      </trkpt>
      <trkpt lat="47.15766" lon="-1.59475">
        <ele>30.8995361</ele>
        <time>2010-10-24T08:36:50Z</time>
      </trkpt>
      <trkpt lat="47.15761" lon="-1.59541">
        <ele>31.380127</ele>
        <time>2010-10-24T08:36:58Z</time>
      </trkpt>
      <trkpt lat="47.15719" lon="-1.59557">
        <ele>30.4188232</ele>
        <time>2010-10-24T08:37:08Z</time>
      </trkpt>
      <trkpt lat="47.15669" lon="-1.59545">
        <ele>29.9381104</ele>
        <time>2010-10-24T08:37:17Z</time>
      </trkpt>
      <trkpt lat="47.15628" lon="-1.5958">
        <ele>29.9381104</ele>
        <time>2010-10-24T08:37:25Z</time>
      </trkpt>
      <trkpt lat="47.15602" lon="-1.5963">
        <ele>29.9381104</ele>
        <time>2010-10-24T08:37:34Z</time>
      </trkpt>
      <trkpt lat="47.15621" lon="-1.59695">
        <ele>28.4962158</ele>
        <time>2010-10-24T08:37:45Z</time>
      </trkpt>
      <trkpt lat="47.15645" lon="-1.59752">
        <ele>27.5349121</ele>
        <time>2010-10-24T08:37:58Z</time>
      </trkpt>
      <trkpt lat="47.15604" lon="-1.59783">
        <ele>28.0155029</ele>
        <time>2010-10-24T08:38:08Z</time>
      </trkpt>
      <trkpt lat="47.15562" lon="-1.59806">
        <ele>27.5349121</ele>
        <time>2010-10-24T08:38:16Z</time>
      </trkpt>
      <trkpt lat="47.15515" lon="-1.5983">
        <ele>28.0155029</ele>
        <time>2010-10-24T08:38:25Z</time>
      </trkpt>
      <trkpt lat="47.15473" lon="-1.59852">
        <ele>28.0155029</ele>
        <time>2010-10-24T08:38:33Z</time>
      </trkpt>
      <trkpt lat="47.15428" lon="-1.59876">
        <ele>28.0155029</ele>
        <time>2010-10-24T08:38:41Z</time>
      </trkpt>
      <trkpt lat="47.15384" lon="-1.59903">
        <ele>27.5349121</ele>
        <time>2010-10-24T08:38:49Z</time>
      </trkpt>
      <trkpt lat="47.15341" lon="-1.5994">
        <ele>27.5349121</ele>
        <time>2010-10-24T08:38:57Z</time>
      </trkpt>
      <trkpt lat="47.15298" lon="-1.59963">
        <ele>27.5349121</ele>
        <time>2010-10-24T08:39:04Z</time>
      </trkpt>
      <trkpt lat="47.15257" lon="-1.59996">
        <ele>28.4962158</ele>
        <time>2010-10-24T08:39:12Z</time>
      </trkpt>
      <trkpt lat="47.15214" lon="-1.60014">
        <ele>28.0155029</ele>
        <time>2010-10-24T08:39:20Z</time>
      </trkpt>
      <trkpt lat="47.15171" lon="-1.60038">
        <ele>28.4962158</ele>
        <time>2010-10-24T08:39:27Z</time>
      </trkpt>
      <trkpt lat="47.15128" lon="-1.60064">
        <ele>28.0155029</ele>
        <time>2010-10-24T08:39:34Z</time>
      </trkpt>
      <trkpt lat="47.1508" lon="-1.60092">
        <ele>27.5349121</ele>
        <time>2010-10-24T08:39:42Z</time>
      </trkpt>
      <trkpt lat="47.15033" lon="-1.60119">
        <ele>26.5736084</ele>
        <time>2010-10-24T08:39:50Z</time>
      </trkpt>
      <trkpt lat="47.14991" lon="-1.60143">
        <ele>25.6123047</ele>
        <time>2010-10-24T08:39:57Z</time>
      </trkpt>
      <trkpt lat="47.14948" lon="-1.60168">
        <ele>24.651001</ele>
        <time>2010-10-24T08:40:04Z</time>
      </trkpt>
      <trkpt lat="47.1494" lon="-1.60231">
        <ele>25.6123047</ele>
        <time>2010-10-24T08:40:11Z</time>
      </trkpt>
      <trkpt lat="47.14958" lon="-1.603">
        <ele>26.0928955</ele>
        <time>2010-10-24T08:40:19Z</time>
      </trkpt>
      <trkpt lat="47.14977" lon="-1.60366">
        <ele>25.6123047</ele>
        <time>2010-10-24T08:40:27Z</time>
      </trkpt>
      <trkpt lat="47.14996" lon="-1.60432">
        <ele>25.6123047</ele>
        <time>2010-10-24T08:40:36Z</time>
      </trkpt>
      <trkpt lat="47.15002" lon="-1.60495">
        <ele>25.6123047</ele>
        <time>2010-10-24T08:40:47Z</time>
      </trkpt>
      <trkpt lat="47.14974" lon="-1.60547">
        <ele>25.1317139</ele>
        <time>2010-10-24T08:40:55Z</time>
      </trkpt>
      <trkpt lat="47.14947" lon="-1.60608">
        <ele>25.1317139</ele>
        <time>2010-10-24T08:41:04Z</time>
      </trkpt>
      <trkpt lat="47.14922" lon="-1.60667">
        <ele>24.651001</ele>
        <time>2010-10-24T08:41:13Z</time>
      </trkpt>
      <trkpt lat="47.14898" lon="-1.60729">
        <ele>24.1702881</ele>
        <time>2010-10-24T08:41:22Z</time>
      </trkpt>
      <trkpt lat="47.14879" lon="-1.60791">
        <ele>22.2475586</ele>
        <time>2010-10-24T08:41:31Z</time>
      </trkpt>
      <trkpt lat="47.1486" lon="-1.60857">
        <ele>24.1702881</ele>
        <time>2010-10-24T08:41:39Z</time>
      </trkpt>
      <trkpt lat="47.14844" lon="-1.60923">
        <ele>23.6895752</ele>
        <time>2010-10-24T08:41:47Z</time>
      </trkpt>
      <trkpt lat="47.14832" lon="-1.60987">
        <ele>26.0928955</ele>
        <time>2010-10-24T08:41:55Z</time>
      </trkpt>
      <trkpt lat="47.14802" lon="-1.61032">
        <ele>25.1317139</ele>
        <time>2010-10-24T08:42:04Z</time>
      </trkpt>
      <trkpt lat="47.14764" lon="-1.6107">
        <ele>25.6123047</ele>
        <time>2010-10-24T08:42:12Z</time>
      </trkpt>
      <trkpt lat="47.14727" lon="-1.61119">
        <ele>26.0928955</ele>
        <time>2010-10-24T08:42:20Z</time>
      </trkpt>
      <trkpt lat="47.14699" lon="-1.61171">
        <ele>26.5736084</ele>
        <time>2010-10-24T08:42:27Z</time>
      </trkpt>
      <trkpt lat="47.14669" lon="-1.61222">
        <ele>25.6123047</ele>
        <time>2010-10-24T08:42:34Z</time>
      </trkpt>
      <trkpt lat="47.14628" lon="-1.61254">
        <ele>24.651001</ele>
        <time>2010-10-24T08:42:41Z</time>
      </trkpt>
      <trkpt lat="47.14586" lon="-1.61287">
        <ele>22.2475586</ele>
        <time>2010-10-24T08:42:48Z</time>
      </trkpt>
      <trkpt lat="47.14541" lon="-1.61313">
        <ele>21.286377</ele>
        <time>2010-10-24T08:42:55Z</time>
      </trkpt>
      <trkpt lat="47.14496" lon="-1.61297">
        <ele>20.8056641</ele>
        <time>2010-10-24T08:43:02Z</time>
      </trkpt>
      <trkpt lat="47.14445" lon="-1.61276">
        <ele>19.3637695</ele>
        <time>2010-10-24T08:43:09Z</time>
      </trkpt>
      <trkpt lat="47.14399" lon="-1.61259">
        <ele>18.8830566</ele>
        <time>2010-10-24T08:43:15Z</time>
      </trkpt>
      <trkpt lat="47.14353" lon="-1.6125">
        <ele>17.4411621</ele>
        <time>2010-10-24T08:43:21Z</time>
      </trkpt>
      <trkpt lat="47.14308" lon="-1.61249">
        <ele>15.9990234</ele>
        <time>2010-10-24T08:43:27Z</time>
      </trkpt>
      <trkpt lat="47.14257" lon="-1.6125">
        <ele>15.5184326</ele>
        <time>2010-10-24T08:43:34Z</time>
      </trkpt>
      <trkpt lat="47.14208" lon="-1.61255">
        <ele>15.0377197</ele>
        <time>2010-10-24T08:43:41Z</time>
      </trkpt>
      <trkpt lat="47.14172" lon="-1.61208">
        <ele>14.5570068</ele>
        <time>2010-10-24T08:43:48Z</time>
      </trkpt>
      <trkpt lat="47.14146" lon="-1.61143">
        <ele>13.5958252</ele>
        <time>2010-10-24T08:43:55Z</time>
      </trkpt>
      <trkpt lat="47.14114" lon="-1.61093">
        <ele>14.5570068</ele>
        <time>2010-10-24T08:44:04Z</time>
      </trkpt>
      <trkpt lat="47.14083" lon="-1.6115">
        <ele>15.5184326</ele>
        <time>2010-10-24T08:44:14Z</time>
      </trkpt>
      <trkpt lat="47.14055" lon="-1.61203">
        <ele>15.0377197</ele>
        <time>2010-10-24T08:44:22Z</time>
      </trkpt>
      <trkpt lat="47.14032" lon="-1.61265">
        <ele>14.5570068</ele>
        <time>2010-10-24T08:44:31Z</time>
      </trkpt>
      <trkpt lat="47.14022" lon="-1.61333">
        <ele>13.1151123</ele>
        <time>2010-10-24T08:44:42Z</time>
      </trkpt>
      <trkpt lat="47.13997" lon="-1.61389">
        <ele>12.6343994</ele>
        <time>2010-10-24T08:44:50Z</time>
      </trkpt>
      <trkpt lat="47.13953" lon="-1.61428">
        <ele>13.5958252</ele>
        <time>2010-10-24T08:44:59Z</time>
      </trkpt>
      <trkpt lat="47.13916" lon="-1.61476">
        <ele>14.5570068</ele>
        <time>2010-10-24T08:45:08Z</time>
      </trkpt>
      <trkpt lat="47.13883" lon="-1.61524">
        <ele>15.5184326</ele>
        <time>2010-10-24T08:45:16Z</time>
      </trkpt>
      <trkpt lat="47.13847" lon="-1.61574">
        <ele>15.0377197</ele>
        <time>2010-10-24T08:45:24Z</time>
      </trkpt>
      <trkpt lat="47.13813" lon="-1.61622">
        <ele>15.5184326</ele>
        <time>2010-10-24T08:45:32Z</time>
      </trkpt>
      <trkpt lat="47.13778" lon="-1.61669">
        <ele>15.0377197</ele>
        <time>2010-10-24T08:45:40Z</time>
      </trkpt>
      <trkpt lat="47.13742" lon="-1.61718">
        <ele>15.5184326</ele>
        <time>2010-10-24T08:45:48Z</time>
      </trkpt>
      <trkpt lat="47.13729" lon="-1.6179">
        <ele>15.0377197</ele>
        <time>2010-10-24T08:45:56Z</time>
      </trkpt>
      <trkpt lat="47.13721" lon="-1.61856">
        <ele>15.5184326</ele>
        <time>2010-10-24T08:46:03Z</time>
      </trkpt>
      <trkpt lat="47.13719" lon="-1.61924">
        <ele>16.4797363</ele>
        <time>2010-10-24T08:46:10Z</time>
      </trkpt>
      <trkpt lat="47.13726" lon="-1.61993">
        <ele>16.9604492</ele>
        <time>2010-10-24T08:46:17Z</time>
      </trkpt>
      <trkpt lat="47.13735" lon="-1.62059">
        <ele>17.9217529</ele>
        <time>2010-10-24T08:46:24Z</time>
      </trkpt>
      <trkpt lat="47.13745" lon="-1.62134">
        <ele>17.9217529</ele>
        <time>2010-10-24T08:46:32Z</time>
      </trkpt>
      <trkpt lat="47.13754" lon="-1.62208">
        <ele>17.9217529</ele>
        <time>2010-10-24T08:46:40Z</time>
      </trkpt>
      <trkpt lat="47.13763" lon="-1.62281">
        <ele>18.4023438</ele>
        <time>2010-10-24T08:46:48Z</time>
      </trkpt>
      <trkpt lat="47.13762" lon="-1.6235">
        <ele>17.9217529</ele>
        <time>2010-10-24T08:46:55Z</time>
      </trkpt>
      <trkpt lat="47.1376" lon="-1.62417">
        <ele>15.5184326</ele>
        <time>2010-10-24T08:47:01Z</time>
      </trkpt>
      <trkpt lat="47.13766" lon="-1.62486">
        <ele>14.076416</ele>
        <time>2010-10-24T08:47:07Z</time>
      </trkpt>
      <trkpt lat="47.13773" lon="-1.62562">
        <ele>13.5958252</ele>
        <time>2010-10-24T08:47:14Z</time>
      </trkpt>
      <trkpt lat="47.1378" lon="-1.6263">
        <ele>14.076416</ele>
        <time>2010-10-24T08:47:21Z</time>
      </trkpt>
      <trkpt lat="47.13779" lon="-1.62699">
        <ele>15.0377197</ele>
        <time>2010-10-24T08:47:29Z</time>
      </trkpt>
      <trkpt lat="47.13738" lon="-1.62734">
        <ele>15.5184326</ele>
        <time>2010-10-24T08:47:38Z</time>
      </trkpt>
      <trkpt lat="47.13691" lon="-1.62757">
        <ele>15.0377197</ele>
        <time>2010-10-24T08:47:46Z</time>
      </trkpt>
      <trkpt lat="47.13645" lon="-1.6278">
        <ele>15.0377197</ele>
        <time>2010-10-24T08:47:54Z</time>
      </trkpt>
      <trkpt lat="47.136" lon="-1.62804">
        <ele>14.5570068</ele>
        <time>2010-10-24T08:48:02Z</time>
      </trkpt>
      <trkpt lat="47.13554" lon="-1.62825">
        <ele>13.5958252</ele>
        <time>2010-10-24T08:48:10Z</time>
      </trkpt>
      <trkpt lat="47.13511" lon="-1.62857">
        <ele>14.076416</ele>
        <time>2010-10-24T08:48:18Z</time>
      </trkpt>
      <trkpt lat="47.13468" lon="-1.62895">
        <ele>14.5570068</ele>
        <time>2010-10-24T08:48:26Z</time>
      </trkpt>
      <trkpt lat="47.13422" lon="-1.62921">
        <ele>13.5958252</ele>
        <time>2010-10-24T08:48:34Z</time>
      </trkpt>
      <trkpt lat="47.13375" lon="-1.62934">
        <ele>11.1925049</ele>
        <time>2010-10-24T08:48:42Z</time>
      </trkpt>
      <trkpt lat="47.13329" lon="-1.62945">
        <ele>11.6732178</ele>
        <time>2010-10-24T08:48:51Z</time>
      </trkpt>
      <trkpt lat="47.13333" lon="-1.63012">
        <ele>15.0377197</ele>
        <time>2010-10-24T08:49:02Z</time>
      </trkpt>
      <trkpt lat="47.13334" lon="-1.63081">
        <ele>14.5570068</ele>
        <time>2010-10-24T08:49:10Z</time>
      </trkpt>
      <trkpt lat="47.1334" lon="-1.63152">
        <ele>12.6343994</ele>
        <time>2010-10-24T08:49:18Z</time>
      </trkpt>
      <trkpt lat="47.13375" lon="-1.63212">
        <ele>9.7506104</ele>
        <time>2010-10-24T08:49:27Z</time>
      </trkpt>
      <trkpt lat="47.13347" lon="-1.63245">
        <ele>7.8278809</ele>
        <time>2010-10-24T08:49:38Z</time>
      </trkpt>
      <trkpt lat="47.133" lon="-1.63262">
        <ele>6.8664551</ele>
        <time>2010-10-24T08:49:46Z</time>
      </trkpt>
      <trkpt lat="47.13279" lon="-1.63303">
        <ele>6.3858643</ele>
        <time>2010-10-24T08:49:54Z</time>
      </trkpt>
      <trkpt lat="47.13299" lon="-1.63367">
        <ele>7.347168</ele>
        <time>2010-10-24T08:50:02Z</time>
      </trkpt>
      <trkpt lat="47.13319" lon="-1.63429">
        <ele>8.3085938</ele>
        <time>2010-10-24T08:50:10Z</time>
      </trkpt>
      <trkpt lat="47.13323" lon="-1.63494">
        <ele>8.3085938</ele>
        <time>2010-10-24T08:50:18Z</time>
      </trkpt>
      <trkpt lat="47.13313" lon="-1.63564">
        <ele>8.7891846</ele>
        <time>2010-10-24T08:50:26Z</time>
      </trkpt>
      <trkpt lat="47.13311" lon="-1.63634">
        <ele>9.7506104</ele>
        <time>2010-10-24T08:50:34Z</time>
      </trkpt>
      <trkpt lat="47.13313" lon="-1.63704">
        <ele>10.2312012</ele>
        <time>2010-10-24T08:50:42Z</time>
      </trkpt>
      <trkpt lat="47.13316" lon="-1.63772">
        <ele>8.7891846</ele>
        <time>2010-10-24T08:50:50Z</time>
      </trkpt>
      <trkpt lat="47.13312" lon="-1.63843">
        <ele>9.7506104</ele>
        <time>2010-10-24T08:50:58Z</time>
      </trkpt>
      <trkpt lat="47.13305" lon="-1.63913">
        <ele>10.2312012</ele>
        <time>2010-10-24T08:51:06Z</time>
      </trkpt>
      <trkpt lat="47.13287" lon="-1.63976">
        <ele>10.2312012</ele>
        <time>2010-10-24T08:51:15Z</time>
      </trkpt>
      <trkpt lat="47.13277" lon="-1.64045">
        <ele>9.7506104</ele>
        <time>2010-10-24T08:51:25Z</time>
      </trkpt>
      <trkpt lat="47.13264" lon="-1.64116">
        <ele>10.2312012</ele>
        <time>2010-10-24T08:51:34Z</time>
      </trkpt>
      <trkpt lat="47.13239" lon="-1.64172">
        <ele>10.2312012</ele>
        <time>2010-10-24T08:51:43Z</time>
      </trkpt>
      <trkpt lat="47.13202" lon="-1.64218">
        <ele>9.2698975</ele>
        <time>2010-10-24T08:51:58Z</time>
      </trkpt>
      <trkpt lat="47.13165" lon="-1.6426">
        <ele>8.3085938</ele>
        <time>2010-10-24T08:52:07Z</time>
      </trkpt>
      <trkpt lat="47.13144" lon="-1.64317">
        <ele>8.3085938</ele>
        <time>2010-10-24T08:52:15Z</time>
      </trkpt>
      <trkpt lat="47.13141" lon="-1.64379">
        <ele>7.8278809</ele>
        <time>2010-10-24T08:52:24Z</time>
      </trkpt>
      <trkpt lat="47.13164" lon="-1.64438">
        <ele>9.2698975</ele>
        <time>2010-10-24T08:52:34Z</time>
      </trkpt>
      <trkpt lat="47.13141" lon="-1.64497">
        <ele>6.8664551</ele>
        <time>2010-10-24T08:52:43Z</time>
      </trkpt>
      <trkpt lat="47.13101" lon="-1.64541">
        <ele>6.8664551</ele>
        <time>2010-10-24T08:52:52Z</time>
      </trkpt>
      <trkpt lat="47.13098" lon="-1.64606">
        <ele>6.3858643</ele>
        <time>2010-10-24T08:53:01Z</time>
      </trkpt>
      <trkpt lat="47.13107" lon="-1.64671">
        <ele>10.2312012</ele>
        <time>2010-10-24T08:53:10Z</time>
      </trkpt>
      <trkpt lat="47.13123" lon="-1.64717">
        <ele>9.2698975</ele>
        <time>2010-10-24T08:53:23Z</time>
      </trkpt>
      <trkpt lat="47.13111" lon="-1.64762">
        <ele>8.3085938</ele>
        <time>2010-10-24T08:53:36Z</time>
      </trkpt>
      <trkpt lat="47.1307" lon="-1.64803">
        <ele>8.7891846</ele>
        <time>2010-10-24T08:53:46Z</time>
      </trkpt>
      <trkpt lat="47.1303" lon="-1.64842">
        <ele>9.2698975</ele>
        <time>2010-10-24T08:53:55Z</time>
      </trkpt>
      <trkpt lat="47.12983" lon="-1.6487">
        <ele>9.2698975</ele>
        <time>2010-10-24T08:54:04Z</time>
      </trkpt>
      <trkpt lat="47.12936" lon="-1.64855">
        <ele>7.8278809</ele>
        <time>2010-10-24T08:54:12Z</time>
      </trkpt>
      <trkpt lat="47.12886" lon="-1.64847">
        <ele>7.8278809</ele>
        <time>2010-10-24T08:54:20Z</time>
      </trkpt>
      <trkpt lat="47.1284" lon="-1.6485">
        <ele>9.2698975</ele>
        <time>2010-10-24T08:54:29Z</time>
      </trkpt>
      <trkpt lat="47.12829" lon="-1.64914">
        <ele>9.7506104</ele>
        <time>2010-10-24T08:54:38Z</time>
      </trkpt>
      <trkpt lat="47.12813" lon="-1.64981">
        <ele>9.7506104</ele>
        <time>2010-10-24T08:54:47Z</time>
      </trkpt>
      <trkpt lat="47.128" lon="-1.65047">
        <ele>8.7891846</ele>
        <time>2010-10-24T08:54:58Z</time>
      </trkpt>
      <trkpt lat="47.12795" lon="-1.65059">
        <ele>9.7506104</ele>
        <time>2010-10-24T08:55:39Z</time>
      </trkpt>
      <trkpt lat="47.12769" lon="-1.65113">
        <ele>8.3085938</ele>
        <time>2010-10-24T08:57:35Z</time>
      </trkpt>
      <trkpt lat="47.12729" lon="-1.65155">
        <ele>7.347168</ele>
        <time>2010-10-24T08:57:46Z</time>
      </trkpt>
      <trkpt lat="47.12687" lon="-1.65187">
        <ele>6.3858643</ele>
        <time>2010-10-24T08:57:56Z</time>
      </trkpt>
      <trkpt lat="47.12641" lon="-1.65212">
        <ele>5.9052734</ele>
        <time>2010-10-24T08:58:06Z</time>
      </trkpt>
      <trkpt lat="47.12592" lon="-1.65214">
        <ele>4.9438477</ele>
        <time>2010-10-24T08:58:15Z</time>
      </trkpt>
      <trkpt lat="47.12545" lon="-1.65213">
        <ele>5.4245605</ele>
        <time>2010-10-24T08:58:24Z</time>
      </trkpt>
      <trkpt lat="47.12499" lon="-1.65218">
        <ele>5.4245605</ele>
        <time>2010-10-24T08:58:33Z</time>
      </trkpt>
      <trkpt lat="47.12454" lon="-1.65224">
        <ele>5.4245605</ele>
        <time>2010-10-24T08:58:42Z</time>
      </trkpt>
      <trkpt lat="47.12408" lon="-1.65228">
        <ele>4.9438477</ele>
        <time>2010-10-24T08:58:51Z</time>
      </trkpt>
      <trkpt lat="47.12361" lon="-1.65234">
        <ele>3.982666</ele>
        <time>2010-10-24T08:59:00Z</time>
      </trkpt>
      <trkpt lat="47.12313" lon="-1.65239">
        <ele>2.0600586</ele>
        <time>2010-10-24T08:59:09Z</time>
      </trkpt>
      <trkpt lat="47.12264" lon="-1.65243">
        <ele>0.618042</ele>
        <time>2010-10-24T08:59:19Z</time>
      </trkpt>
      <trkpt lat="47.12229" lon="-1.65279">
        <ele>1.0986328</ele>
        <time>2010-10-24T08:59:32Z</time>
      </trkpt>
      <trkpt lat="47.12192" lon="-1.65323">
        <ele>-1.3046875</ele>
        <time>2010-10-24T08:59:42Z</time>
      </trkpt>
      <trkpt lat="47.12154" lon="-1.65371">
        <ele>-3.2272949</ele>
        <time>2010-10-24T08:59:51Z</time>
      </trkpt>
      <trkpt lat="47.12118" lon="-1.65414">
        <ele>-7.5531006</ele>
        <time>2010-10-24T09:00:00Z</time>
      </trkpt>
      <trkpt lat="47.12083" lon="-1.6546">
        <ele>-11.8791504</ele>
        <time>2010-10-24T09:00:09Z</time>
      </trkpt>
      <trkpt lat="47.12044" lon="-1.65506">
        <ele>-14.7630615</ele>
        <time>2010-10-24T09:00:19Z</time>
      </trkpt>
      <trkpt lat="47.11997" lon="-1.65547">
        <ele>-7.5531006</ele>
        <time>2010-10-24T09:00:31Z</time>
      </trkpt>
      <trkpt lat="47.11976" lon="-1.65572">
        <ele>-1.7852783</ele>
        <time>2010-10-24T09:05:37Z</time>
      </trkpt>
      <trkpt lat="47.12015" lon="-1.65532">
        <ele>0.1374512</ele>
        <time>2010-10-24T09:05:55Z</time>
      </trkpt>
      <trkpt lat="47.12055" lon="-1.65496">
        <ele>4.4632568</ele>
        <time>2010-10-24T09:06:14Z</time>
      </trkpt>
      <trkpt lat="47.1209" lon="-1.65451">
        <ele>6.3858643</ele>
        <time>2010-10-24T09:06:31Z</time>
      </trkpt>
      <trkpt lat="47.12127" lon="-1.65403">
        <ele>9.2698975</ele>
        <time>2010-10-24T09:06:50Z</time>
      </trkpt>
      <trkpt lat="47.12164" lon="-1.65356">
        <ele>9.7506104</ele>
        <time>2010-10-24T09:07:02Z</time>
      </trkpt>
      <trkpt lat="47.12204" lon="-1.65307">
        <ele>8.7891846</ele>
        <time>2010-10-24T09:07:14Z</time>
      </trkpt>
      <trkpt lat="47.12239" lon="-1.65317">
        <ele>6.8664551</ele>
        <time>2010-10-24T09:07:28Z</time>
      </trkpt>
      <trkpt lat="47.12261" lon="-1.65381">
        <ele>4.9438477</ele>
        <time>2010-10-24T09:07:38Z</time>
      </trkpt>
      <trkpt lat="47.12291" lon="-1.65438">
        <ele>4.4632568</ele>
        <time>2010-10-24T09:07:48Z</time>
      </trkpt>
      <trkpt lat="47.12323" lon="-1.65486">
        <ele>4.9438477</ele>
        <time>2010-10-24T09:07:57Z</time>
      </trkpt>
      <trkpt lat="47.12355" lon="-1.65536">
        <ele>4.9438477</ele>
        <time>2010-10-24T09:08:06Z</time>
      </trkpt>
      <trkpt lat="47.12391" lon="-1.6558">
        <ele>4.4632568</ele>
        <time>2010-10-24T09:08:15Z</time>
      </trkpt>
      <trkpt lat="47.1244" lon="-1.65592">
        <ele>5.4245605</ele>
        <time>2010-10-24T09:08:24Z</time>
      </trkpt>
      <trkpt lat="47.12485" lon="-1.65603">
        <ele>5.9052734</ele>
        <time>2010-10-24T09:08:32Z</time>
      </trkpt>
      <trkpt lat="47.12535" lon="-1.65616">
        <ele>6.3858643</ele>
        <time>2010-10-24T09:08:41Z</time>
      </trkpt>
      <trkpt lat="47.12571" lon="-1.65656">
        <ele>5.4245605</ele>
        <time>2010-10-24T09:08:49Z</time>
      </trkpt>
      <trkpt lat="47.12605" lon="-1.65705">
        <ele>4.4632568</ele>
        <time>2010-10-24T09:08:57Z</time>
      </trkpt>
      <trkpt lat="47.12633" lon="-1.65764">
        <ele>3.5019531</ele>
        <time>2010-10-24T09:09:06Z</time>
      </trkpt>
      <trkpt lat="47.12659" lon="-1.65827">
        <ele>3.0212402</ele>
        <time>2010-10-24T09:09:15Z</time>
      </trkpt>
      <trkpt lat="47.12669" lon="-1.65895">
        <ele>3.0212402</ele>
        <time>2010-10-24T09:09:24Z</time>
      </trkpt>
      <trkpt lat="47.12682" lon="-1.65964">
        <ele>2.0600586</ele>
        <time>2010-10-24T09:09:33Z</time>
      </trkpt>
      <trkpt lat="47.127" lon="-1.66033">
        <ele>5.9052734</ele>
        <time>2010-10-24T09:09:42Z</time>
      </trkpt>
      <trkpt lat="47.12697" lon="-1.66108">
        <ele>7.347168</ele>
        <time>2010-10-24T09:09:51Z</time>
      </trkpt>
      <trkpt lat="47.12676" lon="-1.66174">
        <ele>4.4632568</ele>
        <time>2010-10-24T09:10:00Z</time>
      </trkpt>
      <trkpt lat="47.12682" lon="-1.66254">
        <ele>1.5793457</ele>
        <time>2010-10-24T09:10:11Z</time>
      </trkpt>
      <trkpt lat="47.12693" lon="-1.66326">
        <ele>-1.3046875</ele>
        <time>2010-10-24T09:10:20Z</time>
      </trkpt>
      <trkpt lat="47.12703" lon="-1.66406">
        <ele>-1.3046875</ele>
        <time>2010-10-24T09:10:30Z</time>
      </trkpt>
      <trkpt lat="47.12714" lon="-1.66491">
        <ele>-0.8240967</ele>
        <time>2010-10-24T09:10:40Z</time>
      </trkpt>
      <trkpt lat="47.12742" lon="-1.66551">
        <ele>-1.3046875</ele>
        <time>2010-10-24T09:10:49Z</time>
      </trkpt>
      <trkpt lat="47.12771" lon="-1.66602">
        <ele>1.0986328</ele>
        <time>2010-10-24T09:10:59Z</time>
      </trkpt>
      <trkpt lat="47.12757" lon="-1.66675">
        <ele>0.1374512</ele>
        <time>2010-10-24T09:11:08Z</time>
      </trkpt>
      <trkpt lat="47.12741" lon="-1.6674">
        <ele>-0.8240967</ele>
        <time>2010-10-24T09:11:16Z</time>
      </trkpt>
      <trkpt lat="47.12724" lon="-1.66804">
        <ele>-2.7467041</ele>
        <time>2010-10-24T09:11:25Z</time>
      </trkpt>
      <trkpt lat="47.12708" lon="-1.66868">
        <ele>-5.6304932</ele>
        <time>2010-10-24T09:11:33Z</time>
      </trkpt>
      <trkpt lat="47.12692" lon="-1.66935">
        <ele>-6.5919189</ele>
        <time>2010-10-24T09:11:42Z</time>
      </trkpt>
      <trkpt lat="47.1267" lon="-1.66993">
        <ele>-7.0725098</ele>
        <time>2010-10-24T09:11:51Z</time>
      </trkpt>
      <trkpt lat="47.12677" lon="-1.67044">
        <ele>-3.7078857</ele>
        <time>2010-10-24T09:12:07Z</time>
      </trkpt>
      <trkpt lat="47.12724" lon="-1.67031">
        <ele>-1.3046875</ele>
        <time>2010-10-24T09:12:20Z</time>
      </trkpt>
      <trkpt lat="47.12766" lon="-1.6701">
        <ele>-1.3046875</ele>
        <time>2010-10-24T09:12:34Z</time>
      </trkpt>
      <trkpt lat="47.12807" lon="-1.6702">
        <ele>1.0986328</ele>
        <time>2010-10-24T09:13:01Z</time>
      </trkpt>
      <trkpt lat="47.12849" lon="-1.67009">
        <ele>0.1374512</ele>
        <time>2010-10-24T09:13:18Z</time>
      </trkpt>
      <trkpt lat="47.12869" lon="-1.67027">
        <ele>0.618042</ele>
        <time>2010-10-24T09:13:40Z</time>
      </trkpt>
      <trkpt lat="47.12912" lon="-1.67043">
        <ele>0.618042</ele>
        <time>2010-10-24T09:13:58Z</time>
      </trkpt>
      <trkpt lat="47.12955" lon="-1.67052">
        <ele>2.5406494</ele>
        <time>2010-10-24T09:14:18Z</time>
      </trkpt>
      <trkpt lat="47.12991" lon="-1.67067">
        <ele>3.0212402</ele>
        <time>2010-10-24T09:15:31Z</time>
      </trkpt>
      <trkpt lat="47.13028" lon="-1.67105">
        <ele>3.5019531</ele>
        <time>2010-10-24T09:15:44Z</time>
      </trkpt>
      <trkpt lat="47.13062" lon="-1.67151">
        <ele>3.5019531</ele>
        <time>2010-10-24T09:15:55Z</time>
      </trkpt>
      <trkpt lat="47.131" lon="-1.67195">
        <ele>4.4632568</ele>
        <time>2010-10-24T09:16:04Z</time>
      </trkpt>
      <trkpt lat="47.13135" lon="-1.67247">
        <ele>3.982666</ele>
        <time>2010-10-24T09:16:14Z</time>
      </trkpt>
      <trkpt lat="47.1316" lon="-1.67302">
        <ele>3.5019531</ele>
        <time>2010-10-24T09:16:25Z</time>
      </trkpt>
      <trkpt lat="47.132" lon="-1.67315">
        <ele>3.0212402</ele>
        <time>2010-10-24T09:16:40Z</time>
      </trkpt>
      <trkpt lat="47.13228" lon="-1.6726">
        <ele>2.5406494</ele>
        <time>2010-10-24T09:16:52Z</time>
      </trkpt>
      <trkpt lat="47.13256" lon="-1.67202">
        <ele>4.9438477</ele>
        <time>2010-10-24T09:17:02Z</time>
      </trkpt>
      <trkpt lat="47.13284" lon="-1.67147">
        <ele>11.1925049</ele>
        <time>2010-10-24T09:17:12Z</time>
      </trkpt>
      <trkpt lat="47.13311" lon="-1.67089">
        <ele>15.0377197</ele>
        <time>2010-10-24T09:17:22Z</time>
      </trkpt>
      <trkpt lat="47.1335" lon="-1.67086">
        <ele>16.4797363</ele>
        <time>2010-10-24T09:17:34Z</time>
      </trkpt>
      <trkpt lat="47.13389" lon="-1.67119">
        <ele>18.4023438</ele>
        <time>2010-10-24T09:17:44Z</time>
      </trkpt>
      <trkpt lat="47.13428" lon="-1.67151">
        <ele>21.7669678</ele>
        <time>2010-10-24T09:17:54Z</time>
      </trkpt>
      <trkpt lat="47.13465" lon="-1.67194">
        <ele>24.651001</ele>
        <time>2010-10-24T09:18:05Z</time>
      </trkpt>
      <trkpt lat="47.13501" lon="-1.67239">
        <ele>19.3637695</ele>
        <time>2010-10-24T09:18:18Z</time>
      </trkpt>
      <trkpt lat="47.135" lon="-1.67312">
        <ele>11.6732178</ele>
        <time>2010-10-24T09:18:31Z</time>
      </trkpt>
      <trkpt lat="47.13499" lon="-1.67381">
        <ele>8.3085938</ele>
        <time>2010-10-24T09:18:42Z</time>
      </trkpt>
      <trkpt lat="47.13529" lon="-1.67395">
        <ele>6.8664551</ele>
        <time>2010-10-24T09:18:57Z</time>
      </trkpt>
      <trkpt lat="47.13534" lon="-1.67329">
        <ele>5.9052734</ele>
        <time>2010-10-24T09:19:09Z</time>
      </trkpt>
      <trkpt lat="47.13546" lon="-1.67268">
        <ele>5.9052734</ele>
        <time>2010-10-24T09:19:23Z</time>
      </trkpt>
      <trkpt lat="47.13592" lon="-1.67284">
        <ele>7.347168</ele>
        <time>2010-10-24T09:19:35Z</time>
      </trkpt>
      <trkpt lat="47.13637" lon="-1.67303">
        <ele>9.2698975</ele>
        <time>2010-10-24T09:19:46Z</time>
      </trkpt>
      <trkpt lat="47.13683" lon="-1.6732">
        <ele>8.3085938</ele>
        <time>2010-10-24T09:19:57Z</time>
      </trkpt>
      <trkpt lat="47.13728" lon="-1.67326">
        <ele>7.8278809</ele>
        <time>2010-10-24T09:20:06Z</time>
      </trkpt>
      <trkpt lat="47.13756" lon="-1.67357">
        <ele>7.347168</ele>
        <time>2010-10-24T09:20:18Z</time>
      </trkpt>
      <trkpt lat="47.13761" lon="-1.67428">
        <ele>7.347168</ele>
        <time>2010-10-24T09:20:27Z</time>
      </trkpt>
      <trkpt lat="47.13749" lon="-1.67498">
        <ele>6.8664551</ele>
        <time>2010-10-24T09:20:36Z</time>
      </trkpt>
      <trkpt lat="47.13741" lon="-1.67564">
        <ele>5.9052734</ele>
        <time>2010-10-24T09:20:44Z</time>
      </trkpt>
      <trkpt lat="47.13747" lon="-1.67631">
        <ele>5.9052734</ele>
        <time>2010-10-24T09:20:53Z</time>
      </trkpt>
      <trkpt lat="47.13755" lon="-1.67702">
        <ele>6.3858643</ele>
        <time>2010-10-24T09:21:02Z</time>
      </trkpt>
      <trkpt lat="47.13764" lon="-1.67773">
        <ele>6.3858643</ele>
        <time>2010-10-24T09:21:11Z</time>
      </trkpt>
      <trkpt lat="47.13772" lon="-1.67842">
        <ele>6.3858643</ele>
        <time>2010-10-24T09:21:20Z</time>
      </trkpt>
      <trkpt lat="47.13776" lon="-1.67909">
        <ele>4.4632568</ele>
        <time>2010-10-24T09:21:28Z</time>
      </trkpt>
      <trkpt lat="47.13805" lon="-1.67954">
        <ele>3.982666</ele>
        <time>2010-10-24T09:21:39Z</time>
      </trkpt>
      <trkpt lat="47.1385" lon="-1.67948">
        <ele>5.4245605</ele>
        <time>2010-10-24T09:21:56Z</time>
      </trkpt>
      <trkpt lat="47.13882" lon="-1.67897">
        <ele>5.4245605</ele>
        <time>2010-10-24T09:22:05Z</time>
      </trkpt>
      <trkpt lat="47.13917" lon="-1.67854">
        <ele>6.3858643</ele>
        <time>2010-10-24T09:22:25Z</time>
      </trkpt>
      <trkpt lat="47.13957" lon="-1.67846">
        <ele>6.3858643</ele>
        <time>2010-10-24T09:22:46Z</time>
      </trkpt>
      <trkpt lat="47.13996" lon="-1.67841">
        <ele>8.3085938</ele>
        <time>2010-10-24T09:22:56Z</time>
      </trkpt>
      <trkpt lat="47.14018" lon="-1.67781">
        <ele>8.3085938</ele>
        <time>2010-10-24T09:23:05Z</time>
      </trkpt>
      <trkpt lat="47.14039" lon="-1.67717">
        <ele>7.347168</ele>
        <time>2010-10-24T09:23:14Z</time>
      </trkpt>
      <trkpt lat="47.14059" lon="-1.67656">
        <ele>6.3858643</ele>
        <time>2010-10-24T09:23:23Z</time>
      </trkpt>
      <trkpt lat="47.14086" lon="-1.67612">
        <ele>7.347168</ele>
        <time>2010-10-24T09:23:34Z</time>
      </trkpt>
      <trkpt lat="47.1412" lon="-1.67629">
        <ele>8.7891846</ele>
        <time>2010-10-24T09:23:44Z</time>
      </trkpt>
      <trkpt lat="47.14145" lon="-1.67687">
        <ele>8.7891846</ele>
        <time>2010-10-24T09:23:55Z</time>
      </trkpt>
      <trkpt lat="47.14149" lon="-1.67749">
        <ele>9.7506104</ele>
        <time>2010-10-24T09:24:09Z</time>
      </trkpt>
      <trkpt lat="47.14174" lon="-1.67808">
        <ele>11.6732178</ele>
        <time>2010-10-24T09:24:19Z</time>
      </trkpt>
      <trkpt lat="47.14195" lon="-1.67869">
        <ele>12.6343994</ele>
        <time>2010-10-24T09:24:30Z</time>
      </trkpt>
      <trkpt lat="47.1422" lon="-1.67926">
        <ele>12.6343994</ele>
        <time>2010-10-24T09:24:42Z</time>
      </trkpt>
      <trkpt lat="47.14245" lon="-1.67978">
        <ele>12.6343994</ele>
        <time>2010-10-24T09:24:53Z</time>
      </trkpt>
      <trkpt lat="47.14284" lon="-1.67945">
        <ele>14.076416</ele>
        <time>2010-10-24T09:25:03Z</time>
      </trkpt>
      <trkpt lat="47.14318" lon="-1.679">
        <ele>13.5958252</ele>
        <time>2010-10-24T09:25:15Z</time>
      </trkpt>
      <trkpt lat="47.14352" lon="-1.67852">
        <ele>13.5958252</ele>
        <time>2010-10-24T09:25:30Z</time>
      </trkpt>
      <trkpt lat="47.14399" lon="-1.67851">
        <ele>14.076416</ele>
        <time>2010-10-24T09:25:43Z</time>
      </trkpt>
      <trkpt lat="47.14442" lon="-1.67829">
        <ele>16.4797363</ele>
        <time>2010-10-24T09:25:54Z</time>
      </trkpt>
      <trkpt lat="47.14486" lon="-1.67807">
        <ele>17.4411621</ele>
        <time>2010-10-24T09:26:05Z</time>
      </trkpt>
      <trkpt lat="47.14522" lon="-1.67814">
        <ele>17.4411621</ele>
        <time>2010-10-24T09:26:21Z</time>
      </trkpt>
      <trkpt lat="47.14546" lon="-1.67871">
        <ele>16.9604492</ele>
        <time>2010-10-24T09:26:35Z</time>
      </trkpt>
      <trkpt lat="47.14553" lon="-1.67937">
        <ele>14.076416</ele>
        <time>2010-10-24T09:26:48Z</time>
      </trkpt>
      <trkpt lat="47.14578" lon="-1.67982">
        <ele>15.9990234</ele>
        <time>2010-10-24T09:27:08Z</time>
      </trkpt>
      <trkpt lat="47.14577" lon="-1.68042">
        <ele>16.4797363</ele>
        <time>2010-10-24T09:27:24Z</time>
      </trkpt>
      <trkpt lat="47.1462" lon="-1.68028">
        <ele>15.9990234</ele>
        <time>2010-10-24T09:28:28Z</time>
      </trkpt>
      <trkpt lat="47.14668" lon="-1.68008">
        <ele>15.9990234</ele>
        <time>2010-10-24T09:28:39Z</time>
      </trkpt>
      <trkpt lat="47.14696" lon="-1.67966">
        <ele>17.9217529</ele>
        <time>2010-10-24T09:28:50Z</time>
      </trkpt>
      <trkpt lat="47.14684" lon="-1.67899">
        <ele>17.9217529</ele>
        <time>2010-10-24T09:29:00Z</time>
      </trkpt>
      <trkpt lat="47.14727" lon="-1.67872">
        <ele>17.9217529</ele>
        <time>2010-10-24T09:29:10Z</time>
      </trkpt>
      <trkpt lat="47.14772" lon="-1.67856">
        <ele>19.3637695</ele>
        <time>2010-10-24T09:29:21Z</time>
      </trkpt>
      <trkpt lat="47.14818" lon="-1.67832">
        <ele>20.8056641</ele>
        <time>2010-10-24T09:29:37Z</time>
      </trkpt>
      <trkpt lat="47.14865" lon="-1.67808">
        <ele>23.6895752</ele>
        <time>2010-10-24T09:29:52Z</time>
      </trkpt>
      <trkpt lat="47.14913" lon="-1.6779">
        <ele>24.1702881</ele>
        <time>2010-10-24T09:30:05Z</time>
      </trkpt>
      <trkpt lat="47.14958" lon="-1.67769">
        <ele>24.1702881</ele>
        <time>2010-10-24T09:30:16Z</time>
      </trkpt>
      <trkpt lat="47.15" lon="-1.67742">
        <ele>23.2089844</ele>
        <time>2010-10-24T09:30:27Z</time>
      </trkpt>
      <trkpt lat="47.15041" lon="-1.67706">
        <ele>22.7282715</ele>
        <time>2010-10-24T09:30:37Z</time>
      </trkpt>
      <trkpt lat="47.15084" lon="-1.67665">
        <ele>24.1702881</ele>
        <time>2010-10-24T09:30:47Z</time>
      </trkpt>
      <trkpt lat="47.15124" lon="-1.67624">
        <ele>23.6895752</ele>
        <time>2010-10-24T09:30:56Z</time>
      </trkpt>
      <trkpt lat="47.15159" lon="-1.67573">
        <ele>23.2089844</ele>
        <time>2010-10-24T09:31:06Z</time>
      </trkpt>
      <trkpt lat="47.15168" lon="-1.67505">
        <ele>23.6895752</ele>
        <time>2010-10-24T09:31:14Z</time>
      </trkpt>
      <trkpt lat="47.15174" lon="-1.67438">
        <ele>23.6895752</ele>
        <time>2010-10-24T09:31:22Z</time>
      </trkpt>
      <trkpt lat="47.15174" lon="-1.67363">
        <ele>25.6123047</ele>
        <time>2010-10-24T09:31:30Z</time>
      </trkpt>
      <trkpt lat="47.15172" lon="-1.67288">
        <ele>25.6123047</ele>
        <time>2010-10-24T09:31:38Z</time>
      </trkpt>
      <trkpt lat="47.1517" lon="-1.67217">
        <ele>26.5736084</ele>
        <time>2010-10-24T09:31:46Z</time>
      </trkpt>
      <trkpt lat="47.1518" lon="-1.67162">
        <ele>27.0543213</ele>
        <time>2010-10-24T09:31:56Z</time>
      </trkpt>
      <trkpt lat="47.15222" lon="-1.67195">
        <ele>27.0543213</ele>
        <time>2010-10-24T09:32:05Z</time>
      </trkpt>
      <trkpt lat="47.15266" lon="-1.67227">
        <ele>28.9769287</ele>
        <time>2010-10-24T09:32:14Z</time>
      </trkpt>
      <trkpt lat="47.15307" lon="-1.67264">
        <ele>29.4575195</ele>
        <time>2010-10-24T09:32:23Z</time>
      </trkpt>
      <trkpt lat="47.15352" lon="-1.67262">
        <ele>29.9381104</ele>
        <time>2010-10-24T09:32:31Z</time>
      </trkpt>
      <trkpt lat="47.15398" lon="-1.6725">
        <ele>30.8995361</ele>
        <time>2010-10-24T09:32:39Z</time>
      </trkpt>
      <trkpt lat="47.15443" lon="-1.67239">
        <ele>31.380127</ele>
        <time>2010-10-24T09:32:47Z</time>
      </trkpt>
      <trkpt lat="47.15487" lon="-1.67229">
        <ele>31.8607178</ele>
        <time>2010-10-24T09:32:55Z</time>
      </trkpt>
      <trkpt lat="47.15535" lon="-1.67218">
        <ele>32.3415527</ele>
        <time>2010-10-24T09:33:05Z</time>
      </trkpt>
      <trkpt lat="47.15581" lon="-1.67206">
        <ele>30.4188232</ele>
        <time>2010-10-24T09:33:22Z</time>
      </trkpt>
      <trkpt lat="47.15626" lon="-1.67193">
        <ele>30.4188232</ele>
        <time>2010-10-24T09:33:31Z</time>
      </trkpt>
      <trkpt lat="47.15671" lon="-1.67182">
        <ele>30.8995361</ele>
        <time>2010-10-24T09:33:40Z</time>
      </trkpt>
      <trkpt lat="47.1572" lon="-1.67169">
        <ele>30.8995361</ele>
        <time>2010-10-24T09:33:50Z</time>
      </trkpt>
      <trkpt lat="47.15765" lon="-1.6716">
        <ele>30.4188232</ele>
        <time>2010-10-24T09:33:59Z</time>
      </trkpt>
      <trkpt lat="47.15812" lon="-1.67149">
        <ele>31.380127</ele>
        <time>2010-10-24T09:34:08Z</time>
      </trkpt>
      <trkpt lat="47.15859" lon="-1.67138">
        <ele>32.8222656</ele>
        <time>2010-10-24T09:34:17Z</time>
      </trkpt>
      <trkpt lat="47.15905" lon="-1.67128">
        <ele>32.8222656</ele>
        <time>2010-10-24T09:34:26Z</time>
      </trkpt>
      <trkpt lat="47.15952" lon="-1.67117">
        <ele>31.8607178</ele>
        <time>2010-10-24T09:34:35Z</time>
      </trkpt>
      <trkpt lat="47.16001" lon="-1.67105">
        <ele>31.380127</ele>
        <time>2010-10-24T09:34:45Z</time>
      </trkpt>
      <trkpt lat="47.16045" lon="-1.67091">
        <ele>28.9769287</ele>
        <time>2010-10-24T09:35:04Z</time>
      </trkpt>
      <trkpt lat="47.16089" lon="-1.67104">
        <ele>28.9769287</ele>
        <time>2010-10-24T09:35:16Z</time>
      </trkpt>
      <trkpt lat="47.16133" lon="-1.67118">
        <ele>28.9769287</ele>
        <time>2010-10-24T09:35:28Z</time>
      </trkpt>
      <trkpt lat="47.16179" lon="-1.67131">
        <ele>29.4575195</ele>
        <time>2010-10-24T09:35:38Z</time>
      </trkpt>
      <trkpt lat="47.16224" lon="-1.67146">
        <ele>29.4575195</ele>
        <time>2010-10-24T09:35:48Z</time>
      </trkpt>
      <trkpt lat="47.16273" lon="-1.67161">
        <ele>29.9381104</ele>
        <time>2010-10-24T09:35:58Z</time>
      </trkpt>
      <trkpt lat="47.16321" lon="-1.67176">
        <ele>29.4575195</ele>
        <time>2010-10-24T09:36:07Z</time>
      </trkpt>
      <trkpt lat="47.16371" lon="-1.67191">
        <ele>30.4188232</ele>
        <time>2010-10-24T09:36:16Z</time>
      </trkpt>
      <trkpt lat="47.16415" lon="-1.67204">
        <ele>29.9381104</ele>
        <time>2010-10-24T09:36:24Z</time>
      </trkpt>
      <trkpt lat="47.16464" lon="-1.67219">
        <ele>30.4188232</ele>
        <time>2010-10-24T09:36:33Z</time>
      </trkpt>
      <trkpt lat="47.16514" lon="-1.67234">
        <ele>30.8995361</ele>
        <time>2010-10-24T09:36:42Z</time>
      </trkpt>
      <trkpt lat="47.16561" lon="-1.67251">
        <ele>31.380127</ele>
        <time>2010-10-24T09:36:51Z</time>
      </trkpt>
      <trkpt lat="47.16595" lon="-1.67286">
        <ele>31.8607178</ele>
        <time>2010-10-24T09:37:01Z</time>
      </trkpt>
      <trkpt lat="47.16569" lon="-1.67347">
        <ele>30.8995361</ele>
        <time>2010-10-24T09:37:09Z</time>
      </trkpt>
      <trkpt lat="47.16537" lon="-1.67399">
        <ele>30.4188232</ele>
        <time>2010-10-24T09:37:17Z</time>
      </trkpt>
      <trkpt lat="47.16506" lon="-1.67447">
        <ele>29.9381104</ele>
        <time>2010-10-24T09:37:25Z</time>
      </trkpt>
      <trkpt lat="47.16474" lon="-1.67506">
        <ele>29.9381104</ele>
        <time>2010-10-24T09:37:33Z</time>
      </trkpt>
      <trkpt lat="47.16444" lon="-1.67558">
        <ele>29.9381104</ele>
        <time>2010-10-24T09:37:40Z</time>
      </trkpt>
      <trkpt lat="47.16415" lon="-1.67615">
        <ele>28.9769287</ele>
        <time>2010-10-24T09:37:49Z</time>
      </trkpt>
      <trkpt lat="47.1645" lon="-1.67616">
        <ele>28.4962158</ele>
        <time>2010-10-24T09:38:00Z</time>
      </trkpt>
      <trkpt lat="47.16497" lon="-1.676">
        <ele>28.9769287</ele>
        <time>2010-10-24T09:38:08Z</time>
      </trkpt>
      <trkpt lat="47.16543" lon="-1.67589">
        <ele>28.9769287</ele>
        <time>2010-10-24T09:38:18Z</time>
      </trkpt>
      <trkpt lat="47.16593" lon="-1.67575">
        <ele>30.8995361</ele>
        <time>2010-10-24T09:38:28Z</time>
      </trkpt>
      <trkpt lat="47.16643" lon="-1.67562">
        <ele>31.380127</ele>
        <time>2010-10-24T09:38:37Z</time>
      </trkpt>
      <trkpt lat="47.1669" lon="-1.67554">
        <ele>32.3415527</ele>
        <time>2010-10-24T09:38:46Z</time>
      </trkpt>
      <trkpt lat="47.16738" lon="-1.67547">
        <ele>33.3028564</ele>
        <time>2010-10-24T09:38:55Z</time>
      </trkpt>
      <trkpt lat="47.16786" lon="-1.67539">
        <ele>34.2641602</ele>
        <time>2010-10-24T09:39:04Z</time>
      </trkpt>
      <trkpt lat="47.16828" lon="-1.67506">
        <ele>34.744873</ele>
        <time>2010-10-24T09:39:14Z</time>
      </trkpt>
      <trkpt lat="47.16868" lon="-1.67471">
        <ele>34.744873</ele>
        <time>2010-10-24T09:39:26Z</time>
      </trkpt>
      <trkpt lat="47.16907" lon="-1.6751">
        <ele>33.3028564</ele>
        <time>2010-10-24T09:39:43Z</time>
      </trkpt>
      <trkpt lat="47.16944" lon="-1.67554">
        <ele>32.8222656</ele>
        <time>2010-10-24T09:39:52Z</time>
      </trkpt>
      <trkpt lat="47.1698" lon="-1.67595">
        <ele>33.3028564</ele>
        <time>2010-10-24T09:40:01Z</time>
      </trkpt>
      <trkpt lat="47.17022" lon="-1.67591">
        <ele>33.3028564</ele>
        <time>2010-10-24T09:40:12Z</time>
      </trkpt>
      <trkpt lat="47.17068" lon="-1.6756">
        <ele>32.8222656</ele>
        <time>2010-10-24T09:40:23Z</time>
      </trkpt>
      <trkpt lat="47.1711" lon="-1.67529">
        <ele>32.3415527</ele>
        <time>2010-10-24T09:40:35Z</time>
      </trkpt>
      <trkpt lat="47.17148" lon="-1.6749">
        <ele>31.8607178</ele>
        <time>2010-10-24T09:40:46Z</time>
      </trkpt>
      <trkpt lat="47.17182" lon="-1.67444">
        <ele>30.4188232</ele>
        <time>2010-10-24T09:40:57Z</time>
      </trkpt>
      <trkpt lat="47.17205" lon="-1.67385">
        <ele>31.380127</ele>
        <time>2010-10-24T09:41:08Z</time>
      </trkpt>
      <trkpt lat="47.1722" lon="-1.6732">
        <ele>31.380127</ele>
        <time>2010-10-24T09:41:19Z</time>
      </trkpt>
      <trkpt lat="47.17226" lon="-1.67255">
        <ele>32.8222656</ele>
        <time>2010-10-24T09:41:32Z</time>
      </trkpt>
      <trkpt lat="47.17182" lon="-1.67275">
        <ele>31.8607178</ele>
        <time>2010-10-24T09:41:45Z</time>
      </trkpt>
      <trkpt lat="47.17139" lon="-1.673">
        <ele>30.8995361</ele>
        <time>2010-10-24T09:42:00Z</time>
      </trkpt>
      <trkpt lat="47.17095" lon="-1.67328">
        <ele>31.380127</ele>
        <time>2010-10-24T09:42:14Z</time>
      </trkpt>
      <trkpt lat="47.17053" lon="-1.6732">
        <ele>32.3415527</ele>
        <time>2010-10-24T09:42:27Z</time>
      </trkpt>
      <trkpt lat="47.17038" lon="-1.6725">
        <ele>33.7834473</ele>
        <time>2010-10-24T09:42:38Z</time>
      </trkpt>
      <trkpt lat="47.17023" lon="-1.6718">
        <ele>34.2641602</ele>
        <time>2010-10-24T09:42:48Z</time>
      </trkpt>
      <trkpt lat="47.17009" lon="-1.67114">
        <ele>34.744873</ele>
        <time>2010-10-24T09:42:57Z</time>
      </trkpt>
      <trkpt lat="47.16995" lon="-1.67044">
        <ele>35.2254639</ele>
        <time>2010-10-24T09:43:06Z</time>
      </trkpt>
      <trkpt lat="47.1698" lon="-1.66975">
        <ele>35.2254639</ele>
        <time>2010-10-24T09:43:15Z</time>
      </trkpt>
      <trkpt lat="47.16965" lon="-1.66904">
        <ele>34.744873</ele>
        <time>2010-10-24T09:43:24Z</time>
      </trkpt>
      <trkpt lat="47.16951" lon="-1.6684">
        <ele>35.7060547</ele>
        <time>2010-10-24T09:43:32Z</time>
      </trkpt>
      <trkpt lat="47.16937" lon="-1.66769">
        <ele>35.7060547</ele>
        <time>2010-10-24T09:43:41Z</time>
      </trkpt>
      <trkpt lat="47.16945" lon="-1.66722">
        <ele>35.7060547</ele>
        <time>2010-10-24T09:43:52Z</time>
      </trkpt>
      <trkpt lat="47.16993" lon="-1.66734">
        <ele>35.2254639</ele>
        <time>2010-10-24T09:44:02Z</time>
      </trkpt>
      <trkpt lat="47.17042" lon="-1.66749">
        <ele>35.7060547</ele>
        <time>2010-10-24T09:44:12Z</time>
      </trkpt>
      <trkpt lat="47.17088" lon="-1.66763">
        <ele>35.7060547</ele>
        <time>2010-10-24T09:44:21Z</time>
      </trkpt>
      <trkpt lat="47.17138" lon="-1.66781">
        <ele>35.2254639</ele>
        <time>2010-10-24T09:44:31Z</time>
      </trkpt>
      <trkpt lat="47.17184" lon="-1.66795">
        <ele>35.2254639</ele>
        <time>2010-10-24T09:44:40Z</time>
      </trkpt>
      <trkpt lat="47.17211" lon="-1.66772">
        <ele>33.7834473</ele>
        <time>2010-10-24T09:44:51Z</time>
      </trkpt>
      <trkpt lat="47.17205" lon="-1.66701">
        <ele>34.2641602</ele>
        <time>2010-10-24T09:45:00Z</time>
      </trkpt>
      <trkpt lat="47.17199" lon="-1.66634">
        <ele>34.744873</ele>
        <time>2010-10-24T09:45:09Z</time>
      </trkpt>
      <trkpt lat="47.17194" lon="-1.66563">
        <ele>34.744873</ele>
        <time>2010-10-24T09:45:18Z</time>
      </trkpt>
      <trkpt lat="47.17189" lon="-1.66492">
        <ele>34.2641602</ele>
        <time>2010-10-24T09:45:27Z</time>
      </trkpt>
      <trkpt lat="47.17184" lon="-1.66426">
        <ele>33.7834473</ele>
        <time>2010-10-24T09:45:35Z</time>
      </trkpt>
      <trkpt lat="47.17178" lon="-1.66359">
        <ele>33.7834473</ele>
        <time>2010-10-24T09:45:43Z</time>
      </trkpt>
      <trkpt lat="47.17172" lon="-1.6629">
        <ele>33.3028564</ele>
        <time>2010-10-24T09:45:51Z</time>
      </trkpt>
      <trkpt lat="47.17166" lon="-1.6622">
        <ele>32.8222656</ele>
        <time>2010-10-24T09:45:59Z</time>
      </trkpt>
      <trkpt lat="47.17149" lon="-1.66169">
        <ele>33.3028564</ele>
        <time>2010-10-24T09:46:09Z</time>
      </trkpt>
      <trkpt lat="47.17104" lon="-1.66182">
        <ele>32.8222656</ele>
        <time>2010-10-24T09:46:18Z</time>
      </trkpt>
      <trkpt lat="47.17056" lon="-1.66195">
        <ele>31.380127</ele>
        <time>2010-10-24T09:46:27Z</time>
      </trkpt>
      <trkpt lat="47.17006" lon="-1.66207">
        <ele>29.9381104</ele>
        <time>2010-10-24T09:46:36Z</time>
      </trkpt>
      <trkpt lat="47.16958" lon="-1.66221">
        <ele>28.9769287</ele>
        <time>2010-10-24T09:46:45Z</time>
      </trkpt>
      <trkpt lat="47.16909" lon="-1.66235">
        <ele>28.4962158</ele>
        <time>2010-10-24T09:46:54Z</time>
      </trkpt>
      <trkpt lat="47.16861" lon="-1.66236">
        <ele>28.0155029</ele>
        <time>2010-10-24T09:47:04Z</time>
      </trkpt>
      <trkpt lat="47.1684" lon="-1.66176">
        <ele>29.4575195</ele>
        <time>2010-10-24T09:47:16Z</time>
      </trkpt>
      <trkpt lat="47.1684" lon="-1.66105">
        <ele>30.4188232</ele>
        <time>2010-10-24T09:47:26Z</time>
      </trkpt>
      <trkpt lat="47.16848" lon="-1.66035">
        <ele>30.8995361</ele>
        <time>2010-10-24T09:47:36Z</time>
      </trkpt>
      <trkpt lat="47.16867" lon="-1.65967">
        <ele>30.8995361</ele>
        <time>2010-10-24T09:47:45Z</time>
      </trkpt>
      <trkpt lat="47.16883" lon="-1.65899">
        <ele>29.9381104</ele>
        <time>2010-10-24T09:47:53Z</time>
      </trkpt>
      <trkpt lat="47.16888" lon="-1.65835">
        <ele>29.4575195</ele>
        <time>2010-10-24T09:48:00Z</time>
      </trkpt>
      <trkpt lat="47.1688" lon="-1.65764">
        <ele>30.8995361</ele>
        <time>2010-10-24T09:48:08Z</time>
      </trkpt>
      <trkpt lat="47.16872" lon="-1.65691">
        <ele>31.380127</ele>
        <time>2010-10-24T09:48:16Z</time>
      </trkpt>
      <trkpt lat="47.16866" lon="-1.65624">
        <ele>31.380127</ele>
        <time>2010-10-24T09:48:23Z</time>
      </trkpt>
      <trkpt lat="47.16859" lon="-1.65557">
        <ele>32.3415527</ele>
        <time>2010-10-24T09:48:30Z</time>
      </trkpt>
      <trkpt lat="47.16851" lon="-1.65491">
        <ele>33.3028564</ele>
        <time>2010-10-24T09:48:37Z</time>
      </trkpt>
      <trkpt lat="47.16843" lon="-1.65423">
        <ele>33.7834473</ele>
        <time>2010-10-24T09:48:44Z</time>
      </trkpt>
      <trkpt lat="47.16835" lon="-1.65355">
        <ele>33.3028564</ele>
        <time>2010-10-24T09:48:51Z</time>
      </trkpt>
      <trkpt lat="47.16827" lon="-1.65286">
        <ele>32.8222656</ele>
        <time>2010-10-24T09:48:58Z</time>
      </trkpt>
      <trkpt lat="47.16819" lon="-1.65212">
        <ele>32.3415527</ele>
        <time>2010-10-24T09:49:05Z</time>
      </trkpt>
      <trkpt lat="47.16811" lon="-1.65141">
        <ele>32.3415527</ele>
        <time>2010-10-24T09:49:12Z</time>
      </trkpt>
      <trkpt lat="47.16803" lon="-1.65068">
        <ele>32.3415527</ele>
        <time>2010-10-24T09:49:19Z</time>
      </trkpt>
      <trkpt lat="47.16793" lon="-1.64996">
        <ele>32.3415527</ele>
        <time>2010-10-24T09:49:26Z</time>
      </trkpt>
      <trkpt lat="47.1679" lon="-1.64924">
        <ele>32.8222656</ele>
        <time>2010-10-24T09:49:33Z</time>
      </trkpt>
      <trkpt lat="47.16798" lon="-1.64854">
        <ele>33.3028564</ele>
        <time>2010-10-24T09:49:40Z</time>
      </trkpt>
      <trkpt lat="47.16801" lon="-1.64786">
        <ele>34.2641602</ele>
        <time>2010-10-24T09:49:47Z</time>
      </trkpt>
      <trkpt lat="47.16782" lon="-1.64715">
        <ele>33.7834473</ele>
        <time>2010-10-24T09:49:54Z</time>
      </trkpt>
      <trkpt lat="47.16763" lon="-1.64645">
        <ele>33.3028564</ele>
        <time>2010-10-24T09:50:01Z</time>
      </trkpt>
      <trkpt lat="47.16746" lon="-1.64583">
        <ele>33.3028564</ele>
        <time>2010-10-24T09:50:08Z</time>
      </trkpt>
      <trkpt lat="47.16729" lon="-1.64515">
        <ele>34.2641602</ele>
        <time>2010-10-24T09:50:17Z</time>
      </trkpt>
      <trkpt lat="47.16711" lon="-1.6445">
        <ele>34.744873</ele>
        <time>2010-10-24T09:50:28Z</time>
      </trkpt>
      <trkpt lat="47.1669" lon="-1.64387">
        <ele>34.2641602</ele>
        <time>2010-10-24T09:50:39Z</time>
      </trkpt>
      <trkpt lat="47.16668" lon="-1.64327">
        <ele>36.1867676</ele>
        <time>2010-10-24T09:50:49Z</time>
      </trkpt>
      <trkpt lat="47.16645" lon="-1.64265">
        <ele>37.6286621</ele>
        <time>2010-10-24T09:50:59Z</time>
      </trkpt>
      <trkpt lat="47.16624" lon="-1.64202">
        <ele>39.0706787</ele>
        <time>2010-10-24T09:51:08Z</time>
      </trkpt>
      <trkpt lat="47.16586" lon="-1.64176">
        <ele>38.109375</ele>
        <time>2010-10-24T09:51:17Z</time>
      </trkpt>
      <trkpt lat="47.16551" lon="-1.64223">
        <ele>35.2254639</ele>
        <time>2010-10-24T09:51:25Z</time>
      </trkpt>
      <trkpt lat="47.1652" lon="-1.64274">
        <ele>32.3415527</ele>
        <time>2010-10-24T09:51:33Z</time>
      </trkpt>
      <trkpt lat="47.16482" lon="-1.64288">
        <ele>31.380127</ele>
        <time>2010-10-24T09:51:43Z</time>
      </trkpt>
      <trkpt lat="47.16474" lon="-1.64231">
        <ele>30.8995361</ele>
        <time>2010-10-24T09:51:55Z</time>
      </trkpt>
      <trkpt lat="47.165" lon="-1.64177">
        <ele>30.4188232</ele>
        <time>2010-10-24T09:52:06Z</time>
      </trkpt>
      <trkpt lat="47.16528" lon="-1.64117">
        <ele>31.380127</ele>
        <time>2010-10-24T09:52:16Z</time>
      </trkpt>
      <trkpt lat="47.16555" lon="-1.6406">
        <ele>31.8607178</ele>
        <time>2010-10-24T09:52:25Z</time>
      </trkpt>
      <trkpt lat="47.1655" lon="-1.63993">
        <ele>31.8607178</ele>
        <time>2010-10-24T09:52:34Z</time>
      </trkpt>
      <trkpt lat="47.16527" lon="-1.63931">
        <ele>32.8222656</ele>
        <time>2010-10-24T09:52:42Z</time>
      </trkpt>
      <trkpt lat="47.16506" lon="-1.63871">
        <ele>33.3028564</ele>
        <time>2010-10-24T09:52:49Z</time>
      </trkpt>
      <trkpt lat="47.16483" lon="-1.63811">
        <ele>32.8222656</ele>
        <time>2010-10-24T09:52:56Z</time>
      </trkpt>
      <trkpt lat="47.16464" lon="-1.63744">
        <ele>33.3028564</ele>
        <time>2010-10-24T09:53:04Z</time>
      </trkpt>
      <trkpt lat="47.16442" lon="-1.63676">
        <ele>33.7834473</ele>
        <time>2010-10-24T09:53:12Z</time>
      </trkpt>
      <trkpt lat="47.16418" lon="-1.63611">
        <ele>34.2641602</ele>
        <time>2010-10-24T09:53:19Z</time>
      </trkpt>
      <trkpt lat="47.16382" lon="-1.63568">
        <ele>32.3415527</ele>
        <time>2010-10-24T09:53:26Z</time>
      </trkpt>
      <trkpt lat="47.1635" lon="-1.63556">
        <ele>31.380127</ele>
        <time>2010-10-24T09:53:41Z</time>
      </trkpt>
      <trkpt lat="47.16396" lon="-1.6355">
        <ele>33.7834473</ele>
        <time>2010-10-24T09:53:53Z</time>
      </trkpt>
      <trkpt lat="47.16444" lon="-1.63552">
        <ele>32.8222656</ele>
        <time>2010-10-24T09:54:05Z</time>
      </trkpt>
      <trkpt lat="47.16491" lon="-1.63557">
        <ele>30.4188232</ele>
        <time>2010-10-24T09:54:14Z</time>
      </trkpt>
      <trkpt lat="47.16537" lon="-1.63568">
        <ele>28.4962158</ele>
        <time>2010-10-24T09:54:22Z</time>
      </trkpt>
      <trkpt lat="47.16582" lon="-1.63571">
        <ele>28.0155029</ele>
        <time>2010-10-24T09:54:31Z</time>
      </trkpt>
      <trkpt lat="47.16613" lon="-1.63543">
        <ele>27.0543213</ele>
        <time>2010-10-24T09:54:42Z</time>
      </trkpt>
      <trkpt lat="47.16593" lon="-1.6349">
        <ele>28.4962158</ele>
        <time>2010-10-24T09:54:54Z</time>
      </trkpt>
      <trkpt lat="47.16559" lon="-1.63442">
        <ele>28.9769287</ele>
        <time>2010-10-24T09:55:02Z</time>
      </trkpt>
      <trkpt lat="47.16522" lon="-1.63391">
        <ele>28.4962158</ele>
        <time>2010-10-24T09:55:10Z</time>
      </trkpt>
      <trkpt lat="47.16493" lon="-1.63334">
        <ele>28.4962158</ele>
        <time>2010-10-24T09:55:18Z</time>
      </trkpt>
      <trkpt lat="47.16467" lon="-1.63278">
        <ele>28.9769287</ele>
        <time>2010-10-24T09:55:26Z</time>
      </trkpt>
      <trkpt lat="47.16443" lon="-1.63218">
        <ele>29.4575195</ele>
        <time>2010-10-24T09:55:34Z</time>
      </trkpt>
      <trkpt lat="47.16432" lon="-1.63148">
        <ele>30.4188232</ele>
        <time>2010-10-24T09:55:42Z</time>
      </trkpt>
      <trkpt lat="47.16434" lon="-1.63082">
        <ele>30.8995361</ele>
        <time>2010-10-24T09:55:50Z</time>
      </trkpt>
      <trkpt lat="47.16453" lon="-1.63016">
        <ele>30.4188232</ele>
        <time>2010-10-24T09:55:58Z</time>
      </trkpt>
      <trkpt lat="47.16486" lon="-1.62972">
        <ele>29.9381104</ele>
        <time>2010-10-24T09:56:06Z</time>
      </trkpt>
      <trkpt lat="47.1653" lon="-1.62949">
        <ele>28.4962158</ele>
        <time>2010-10-24T09:56:13Z</time>
      </trkpt>
      <trkpt lat="47.16577" lon="-1.62926">
        <ele>27.5349121</ele>
        <time>2010-10-24T09:56:20Z</time>
      </trkpt>
      <trkpt lat="47.16622" lon="-1.62901">
        <ele>25.1317139</ele>
        <time>2010-10-24T09:56:30Z</time>
      </trkpt>
      <trkpt lat="47.16639" lon="-1.62902">
        <ele>23.6895752</ele>
        <time>2010-10-24T09:56:50Z</time>
      </trkpt>
      <trkpt lat="47.16684" lon="-1.6288">
        <ele>24.1702881</ele>
        <time>2010-10-24T09:57:00Z</time>
      </trkpt>
      <trkpt lat="47.16718" lon="-1.62829">
        <ele>24.651001</ele>
        <time>2010-10-24T09:57:09Z</time>
      </trkpt>
      <trkpt lat="47.16751" lon="-1.62785">
        <ele>23.2089844</ele>
        <time>2010-10-24T09:57:29Z</time>
      </trkpt>
      <trkpt lat="47.16781" lon="-1.62732">
        <ele>22.2475586</ele>
        <time>2010-10-24T09:57:43Z</time>
      </trkpt>
      <trkpt lat="47.16811" lon="-1.62683">
        <ele>22.2475586</ele>
        <time>2010-10-24T09:57:50Z</time>
      </trkpt>
      <trkpt lat="47.16842" lon="-1.62629">
        <ele>21.7669678</ele>
        <time>2010-10-24T09:57:58Z</time>
      </trkpt>
      <trkpt lat="47.16873" lon="-1.62594">
        <ele>20.3249512</ele>
        <time>2010-10-24T09:58:30Z</time>
      </trkpt>
      <trkpt lat="47.16902" lon="-1.62539">
        <ele>19.8443604</ele>
        <time>2010-10-24T09:58:41Z</time>
      </trkpt>
      <trkpt lat="47.16924" lon="-1.62475">
        <ele>18.4023438</ele>
        <time>2010-10-24T09:58:56Z</time>
      </trkpt>
      <trkpt lat="47.16953" lon="-1.62425">
        <ele>18.4023438</ele>
        <time>2010-10-24T09:59:05Z</time>
      </trkpt>
      <trkpt lat="47.16975" lon="-1.62363">
        <ele>19.3637695</ele>
        <time>2010-10-24T09:59:13Z</time>
      </trkpt>
      <trkpt lat="47.16988" lon="-1.62302">
        <ele>20.3249512</ele>
        <time>2010-10-24T09:59:21Z</time>
      </trkpt>
      <trkpt lat="47.17031" lon="-1.62266">
        <ele>18.8830566</ele>
        <time>2010-10-24T09:59:29Z</time>
      </trkpt>
      <trkpt lat="47.17075" lon="-1.62237">
        <ele>17.9217529</ele>
        <time>2010-10-24T09:59:38Z</time>
      </trkpt>
      <trkpt lat="47.17121" lon="-1.62218">
        <ele>15.9990234</ele>
        <time>2010-10-24T09:59:45Z</time>
      </trkpt>
      <trkpt lat="47.17168" lon="-1.62196">
        <ele>15.5184326</ele>
        <time>2010-10-24T09:59:53Z</time>
      </trkpt>
      <trkpt lat="47.17211" lon="-1.62177">
        <ele>15.5184326</ele>
        <time>2010-10-24T10:00:01Z</time>
      </trkpt>
      <trkpt lat="47.17252" lon="-1.62149">
        <ele>16.4797363</ele>
        <time>2010-10-24T10:00:10Z</time>
      </trkpt>
      <trkpt lat="47.17295" lon="-1.62115">
        <ele>16.9604492</ele>
        <time>2010-10-24T10:00:20Z</time>
      </trkpt>
      <trkpt lat="47.17342" lon="-1.62104">
        <ele>17.9217529</ele>
        <time>2010-10-24T10:00:28Z</time>
      </trkpt>
      <trkpt lat="47.17388" lon="-1.62101">
        <ele>22.2475586</ele>
        <time>2010-10-24T10:00:42Z</time>
      </trkpt>
      <trkpt lat="47.17437" lon="-1.62105">
        <ele>24.1702881</ele>
        <time>2010-10-24T10:00:53Z</time>
      </trkpt>
      <trkpt lat="47.1749" lon="-1.62115">
        <ele>28.0155029</ele>
        <time>2010-10-24T10:01:04Z</time>
      </trkpt>
      <trkpt lat="47.1754" lon="-1.62122">
        <ele>31.380127</ele>
        <time>2010-10-24T10:01:17Z</time>
      </trkpt>
      <trkpt lat="47.17588" lon="-1.6215">
        <ele>32.3415527</ele>
        <time>2010-10-24T10:01:27Z</time>
      </trkpt>
      <trkpt lat="47.17639" lon="-1.62176">
        <ele>33.7834473</ele>
        <time>2010-10-24T10:01:36Z</time>
      </trkpt>
      <trkpt lat="47.17693" lon="-1.62188">
        <ele>34.744873</ele>
        <time>2010-10-24T10:01:47Z</time>
      </trkpt>
      <trkpt lat="47.17723" lon="-1.62222">
        <ele>30.8995361</ele>
        <time>2010-10-24T10:02:15Z</time>
      </trkpt>
      <trkpt lat="47.17724" lon="-1.62222">
        <ele>31.380127</ele>
        <time>2010-10-24T10:02:55Z</time>
      </trkpt>
    </trkseg>
  </trk>
</gpx>